<?xml version="1.0" encoding="UTF-8" standalone="no" ?>
<gpx xmlns="http://www.topografix.com/GPX/1/1" xmlns:xsi="http://www.w3.org/2001/XMLSchema-instance" xsi:schemaLocation="http://www.topografix.com/GPX/1/1 http://www.topografix.com/GPX/1/1/gpx.xsd" version="1.1" creator="VisuGPX - https://www.visugpx.com">
  <metadata>
    <name>bcl-vtt-correncon</name>
    <desc><![CDATA[Tour VTT Corrençon]]></desc>
  </metadata>
  <trk>
    <name><![CDATA[001-2010/05/22-15:44:33]]></name>
    <trkseg>
      <trkpt lat="45.02523" lon="5.51824">
        <ele>1150</ele>
        <time>2010-05-22T13:44:33Z</time>
      </trkpt>
      <trkpt lat="45.02504" lon="5.51797">
        <ele>1145</ele>
        <time>2010-05-22T13:47:08Z</time>
      </trkpt>
      <trkpt lat="45.02497" lon="5.51792">
        <ele>1145</ele>
        <time>2010-05-22T13:47:15Z</time>
      </trkpt>
      <trkpt lat="45.02494" lon="5.51791">
        <ele>1144</ele>
        <time>2010-05-22T13:47:25Z</time>
      </trkpt>
      <trkpt lat="45.02496" lon="5.51791">
        <ele>1144</ele>
        <time>2010-05-22T13:47:32Z</time>
      </trkpt>
      <trkpt lat="45.02503" lon="5.51791">
        <ele>1143</ele>
        <time>2010-05-22T13:47:37Z</time>
      </trkpt>
      <trkpt lat="45.02522" lon="5.51803">
        <ele>1143</ele>
        <time>2010-05-22T13:47:44Z</time>
      </trkpt>
      <trkpt lat="45.02524" lon="5.51813">
        <ele>1143</ele>
        <time>2010-05-22T13:47:50Z</time>
      </trkpt>
      <trkpt lat="45.02523" lon="5.51811">
        <ele>1143</ele>
        <time>2010-05-22T13:47:56Z</time>
      </trkpt>
      <trkpt lat="45.02522" lon="5.51813">
        <ele>1143</ele>
        <time>2010-05-22T13:48:13Z</time>
      </trkpt>
      <trkpt lat="45.02522" lon="5.51815">
        <ele>1143</ele>
        <time>2010-05-22T13:48:23Z</time>
      </trkpt>
      <trkpt lat="45.02521" lon="5.51817">
        <ele>1143</ele>
        <time>2010-05-22T13:48:35Z</time>
      </trkpt>
      <trkpt lat="45.02522" lon="5.51818">
        <ele>1143</ele>
        <time>2010-05-22T13:48:43Z</time>
      </trkpt>
      <trkpt lat="45.02522" lon="5.51821">
        <ele>1143</ele>
        <time>2010-05-22T13:49:04Z</time>
      </trkpt>
      <trkpt lat="45.02523" lon="5.51825">
        <ele>1141</ele>
        <time>2010-05-22T13:49:12Z</time>
      </trkpt>
      <trkpt lat="45.02524" lon="5.51829">
        <ele>1140</ele>
        <time>2010-05-22T13:49:17Z</time>
      </trkpt>
      <trkpt lat="45.02523" lon="5.51831">
        <ele>1139</ele>
        <time>2010-05-22T13:49:23Z</time>
      </trkpt>
      <trkpt lat="45.02519" lon="5.51823">
        <ele>1139</ele>
        <time>2010-05-22T13:49:29Z</time>
      </trkpt>
      <trkpt lat="45.02514" lon="5.51814">
        <ele>1144</ele>
        <time>2010-05-22T13:49:35Z</time>
      </trkpt>
      <trkpt lat="45.02512" lon="5.51809">
        <ele>1145</ele>
        <time>2010-05-22T13:49:41Z</time>
      </trkpt>
      <trkpt lat="45.02509" lon="5.51805">
        <ele>1145</ele>
        <time>2010-05-22T13:49:52Z</time>
      </trkpt>
      <trkpt lat="45.02508" lon="5.51801">
        <ele>1145</ele>
        <time>2010-05-22T13:49:58Z</time>
      </trkpt>
      <trkpt lat="45.02507" lon="5.51799">
        <ele>1146</ele>
        <time>2010-05-22T13:50:03Z</time>
      </trkpt>
      <trkpt lat="45.02506" lon="5.51797">
        <ele>1146</ele>
        <time>2010-05-22T13:50:11Z</time>
      </trkpt>
      <trkpt lat="45.02508" lon="5.51791">
        <ele>1146</ele>
        <time>2010-05-22T13:50:22Z</time>
      </trkpt>
      <trkpt lat="45.0251" lon="5.5179">
        <ele>1143</ele>
        <time>2010-05-22T13:50:27Z</time>
      </trkpt>
      <trkpt lat="45.02511" lon="5.5179">
        <ele>1136</ele>
        <time>2010-05-22T13:50:38Z</time>
      </trkpt>
      <trkpt lat="45.02511" lon="5.51788">
        <ele>1132</ele>
        <time>2010-05-22T13:50:46Z</time>
      </trkpt>
      <trkpt lat="45.0251" lon="5.51787">
        <ele>1131</ele>
        <time>2010-05-22T13:50:53Z</time>
      </trkpt>
      <trkpt lat="45.02508" lon="5.51786">
        <ele>1131</ele>
        <time>2010-05-22T13:50:59Z</time>
      </trkpt>
      <trkpt lat="45.02507" lon="5.51785">
        <ele>1139</ele>
        <time>2010-05-22T13:51:10Z</time>
      </trkpt>
      <trkpt lat="45.02507" lon="5.51786">
        <ele>1139</ele>
        <time>2010-05-22T13:51:24Z</time>
      </trkpt>
      <trkpt lat="45.02509" lon="5.51789">
        <ele>1138</ele>
        <time>2010-05-22T13:51:31Z</time>
      </trkpt>
      <trkpt lat="45.0251" lon="5.51787">
        <ele>1134</ele>
        <time>2010-05-22T13:51:38Z</time>
      </trkpt>
      <trkpt lat="45.02511" lon="5.51786">
        <ele>1132</ele>
        <time>2010-05-22T13:51:44Z</time>
      </trkpt>
      <trkpt lat="45.02509" lon="5.51787">
        <ele>1132</ele>
        <time>2010-05-22T13:51:53Z</time>
      </trkpt>
      <trkpt lat="45.02506" lon="5.51783">
        <ele>1132</ele>
        <time>2010-05-22T13:51:58Z</time>
      </trkpt>
      <trkpt lat="45.025" lon="5.51781">
        <ele>1132</ele>
        <time>2010-05-22T13:52:04Z</time>
      </trkpt>
      <trkpt lat="45.02491" lon="5.5178">
        <ele>1134</ele>
        <time>2010-05-22T13:52:09Z</time>
      </trkpt>
      <trkpt lat="45.02485" lon="5.51776">
        <ele>1136</ele>
        <time>2010-05-22T13:52:16Z</time>
      </trkpt>
      <trkpt lat="45.02479" lon="5.51777">
        <ele>1137</ele>
        <time>2010-05-22T13:52:23Z</time>
      </trkpt>
      <trkpt lat="45.02479" lon="5.51778">
        <ele>1141</ele>
        <time>2010-05-22T13:52:30Z</time>
      </trkpt>
      <trkpt lat="45.02488" lon="5.51778">
        <ele>1144</ele>
        <time>2010-05-22T13:52:36Z</time>
      </trkpt>
      <trkpt lat="45.02501" lon="5.5178">
        <ele>1144</ele>
        <time>2010-05-22T13:52:42Z</time>
      </trkpt>
      <trkpt lat="45.02511" lon="5.51789">
        <ele>1143</ele>
        <time>2010-05-22T13:52:49Z</time>
      </trkpt>
      <trkpt lat="45.02504" lon="5.51795">
        <ele>1140</ele>
        <time>2010-05-22T13:52:54Z</time>
      </trkpt>
      <trkpt lat="45.02496" lon="5.51792">
        <ele>1140</ele>
        <time>2010-05-22T13:52:59Z</time>
      </trkpt>
      <trkpt lat="45.02489" lon="5.51789">
        <ele>1140</ele>
        <time>2010-05-22T13:53:05Z</time>
      </trkpt>
      <trkpt lat="45.02486" lon="5.51792">
        <ele>1140</ele>
        <time>2010-05-22T13:53:10Z</time>
      </trkpt>
      <trkpt lat="45.02485" lon="5.51792">
        <ele>1141</ele>
        <time>2010-05-22T13:53:17Z</time>
      </trkpt>
      <trkpt lat="45.02483" lon="5.51793">
        <ele>1151</ele>
        <time>2010-05-22T13:53:31Z</time>
      </trkpt>
      <trkpt lat="45.02484" lon="5.51792">
        <ele>1151</ele>
        <time>2010-05-22T13:53:46Z</time>
      </trkpt>
      <trkpt lat="45.02483" lon="5.51792">
        <ele>1148</ele>
        <time>2010-05-22T13:53:55Z</time>
      </trkpt>
      <trkpt lat="45.02485" lon="5.5179">
        <ele>1148</ele>
        <time>2010-05-22T13:54:01Z</time>
      </trkpt>
      <trkpt lat="45.02486" lon="5.51789">
        <ele>1147</ele>
        <time>2010-05-22T13:54:06Z</time>
      </trkpt>
      <trkpt lat="45.02489" lon="5.51789">
        <ele>1141</ele>
        <time>2010-05-22T13:54:12Z</time>
      </trkpt>
      <trkpt lat="45.02489" lon="5.51787">
        <ele>1139</ele>
        <time>2010-05-22T13:54:17Z</time>
      </trkpt>
      <trkpt lat="45.02487" lon="5.51783">
        <ele>1139</ele>
        <time>2010-05-22T13:54:30Z</time>
      </trkpt>
      <trkpt lat="45.02488" lon="5.51785">
        <ele>1139</ele>
        <time>2010-05-22T13:54:36Z</time>
      </trkpt>
      <trkpt lat="45.02489" lon="5.51788">
        <ele>1139</ele>
        <time>2010-05-22T13:54:42Z</time>
      </trkpt>
      <trkpt lat="45.0249" lon="5.51787">
        <ele>1139</ele>
        <time>2010-05-22T13:54:48Z</time>
      </trkpt>
      <trkpt lat="45.02492" lon="5.51786">
        <ele>1139</ele>
        <time>2010-05-22T13:54:57Z</time>
      </trkpt>
      <trkpt lat="45.02491" lon="5.51788">
        <ele>1139</ele>
        <time>2010-05-22T13:55:15Z</time>
      </trkpt>
      <trkpt lat="45.0249" lon="5.51785">
        <ele>1139</ele>
        <time>2010-05-22T13:55:22Z</time>
      </trkpt>
      <trkpt lat="45.02491" lon="5.51783">
        <ele>1138</ele>
        <time>2010-05-22T13:55:28Z</time>
      </trkpt>
      <trkpt lat="45.02489" lon="5.51784">
        <ele>1135</ele>
        <time>2010-05-22T13:55:47Z</time>
      </trkpt>
      <trkpt lat="45.02491" lon="5.51787">
        <ele>1135</ele>
        <time>2010-05-22T13:55:53Z</time>
      </trkpt>
      <trkpt lat="45.02491" lon="5.51789">
        <ele>1131</ele>
        <time>2010-05-22T13:56:00Z</time>
      </trkpt>
      <trkpt lat="45.02487" lon="5.51791">
        <ele>1131</ele>
        <time>2010-05-22T13:56:10Z</time>
      </trkpt>
      <trkpt lat="45.02477" lon="5.51787">
        <ele>1135</ele>
        <time>2010-05-22T13:56:16Z</time>
      </trkpt>
      <trkpt lat="45.02468" lon="5.51777">
        <ele>1139</ele>
        <time>2010-05-22T13:56:23Z</time>
      </trkpt>
      <trkpt lat="45.02457" lon="5.51765">
        <ele>1142</ele>
        <time>2010-05-22T13:56:28Z</time>
      </trkpt>
      <trkpt lat="45.02445" lon="5.51756">
        <ele>1143</ele>
        <time>2010-05-22T13:56:34Z</time>
      </trkpt>
      <trkpt lat="45.02438" lon="5.5175">
        <ele>1144</ele>
        <time>2010-05-22T13:56:39Z</time>
      </trkpt>
      <trkpt lat="45.02426" lon="5.51745">
        <ele>1144</ele>
        <time>2010-05-22T13:56:44Z</time>
      </trkpt>
      <trkpt lat="45.02417" lon="5.5174">
        <ele>1145</ele>
        <time>2010-05-22T13:56:49Z</time>
      </trkpt>
      <trkpt lat="45.02408" lon="5.51738">
        <ele>1146</ele>
        <time>2010-05-22T13:56:54Z</time>
      </trkpt>
      <trkpt lat="45.02402" lon="5.51737">
        <ele>1147</ele>
        <time>2010-05-22T13:57:00Z</time>
      </trkpt>
      <trkpt lat="45.02388" lon="5.51744">
        <ele>1148</ele>
        <time>2010-05-22T13:57:06Z</time>
      </trkpt>
      <trkpt lat="45.02374" lon="5.51744">
        <ele>1149</ele>
        <time>2010-05-22T13:57:12Z</time>
      </trkpt>
      <trkpt lat="45.02361" lon="5.51742">
        <ele>1151</ele>
        <time>2010-05-22T13:57:18Z</time>
      </trkpt>
      <trkpt lat="45.0235" lon="5.5174">
        <ele>1151</ele>
        <time>2010-05-22T13:57:24Z</time>
      </trkpt>
      <trkpt lat="45.02336" lon="5.51734">
        <ele>1151</ele>
        <time>2010-05-22T13:57:30Z</time>
      </trkpt>
      <trkpt lat="45.02325" lon="5.51724">
        <ele>1151</ele>
        <time>2010-05-22T13:57:36Z</time>
      </trkpt>
      <trkpt lat="45.02319" lon="5.5171">
        <ele>1151</ele>
        <time>2010-05-22T13:57:42Z</time>
      </trkpt>
      <trkpt lat="45.0232" lon="5.51695">
        <ele>1152</ele>
        <time>2010-05-22T13:57:47Z</time>
      </trkpt>
      <trkpt lat="45.02325" lon="5.51681">
        <ele>1155</ele>
        <time>2010-05-22T13:57:53Z</time>
      </trkpt>
      <trkpt lat="45.02333" lon="5.51671">
        <ele>1159</ele>
        <time>2010-05-22T13:58:00Z</time>
      </trkpt>
      <trkpt lat="45.02342" lon="5.51671">
        <ele>1159</ele>
        <time>2010-05-22T13:58:07Z</time>
      </trkpt>
      <trkpt lat="45.02348" lon="5.51668">
        <ele>1159</ele>
        <time>2010-05-22T13:58:12Z</time>
      </trkpt>
      <trkpt lat="45.0236" lon="5.51664">
        <ele>1160</ele>
        <time>2010-05-22T13:58:20Z</time>
      </trkpt>
      <trkpt lat="45.02362" lon="5.51662">
        <ele>1161</ele>
        <time>2010-05-22T13:58:26Z</time>
      </trkpt>
      <trkpt lat="45.02364" lon="5.51658">
        <ele>1163</ele>
        <time>2010-05-22T13:58:36Z</time>
      </trkpt>
      <trkpt lat="45.02368" lon="5.5165">
        <ele>1163</ele>
        <time>2010-05-22T13:58:42Z</time>
      </trkpt>
      <trkpt lat="45.02364" lon="5.5164">
        <ele>1163</ele>
        <time>2010-05-22T13:58:47Z</time>
      </trkpt>
      <trkpt lat="45.02361" lon="5.51631">
        <ele>1163</ele>
        <time>2010-05-22T13:58:52Z</time>
      </trkpt>
      <trkpt lat="45.02363" lon="5.5162">
        <ele>1163</ele>
        <time>2010-05-22T13:58:58Z</time>
      </trkpt>
      <trkpt lat="45.02369" lon="5.51609">
        <ele>1163</ele>
        <time>2010-05-22T13:59:04Z</time>
      </trkpt>
      <trkpt lat="45.02368" lon="5.51597">
        <ele>1163</ele>
        <time>2010-05-22T13:59:09Z</time>
      </trkpt>
      <trkpt lat="45.02371" lon="5.51584">
        <ele>1163</ele>
        <time>2010-05-22T13:59:14Z</time>
      </trkpt>
      <trkpt lat="45.02371" lon="5.51571">
        <ele>1163</ele>
        <time>2010-05-22T13:59:20Z</time>
      </trkpt>
      <trkpt lat="45.02373" lon="5.51558">
        <ele>1163</ele>
        <time>2010-05-22T13:59:26Z</time>
      </trkpt>
      <trkpt lat="45.02373" lon="5.51546">
        <ele>1163</ele>
        <time>2010-05-22T13:59:32Z</time>
      </trkpt>
      <trkpt lat="45.02368" lon="5.51532">
        <ele>1163</ele>
        <time>2010-05-22T13:59:37Z</time>
      </trkpt>
      <trkpt lat="45.02365" lon="5.51518">
        <ele>1163</ele>
        <time>2010-05-22T13:59:44Z</time>
      </trkpt>
      <trkpt lat="45.02364" lon="5.51503">
        <ele>1163</ele>
        <time>2010-05-22T13:59:49Z</time>
      </trkpt>
      <trkpt lat="45.02363" lon="5.51489">
        <ele>1163</ele>
        <time>2010-05-22T13:59:55Z</time>
      </trkpt>
      <trkpt lat="45.02363" lon="5.51473">
        <ele>1163</ele>
        <time>2010-05-22T14:00:00Z</time>
      </trkpt>
      <trkpt lat="45.02363" lon="5.5146">
        <ele>1163</ele>
        <time>2010-05-22T14:00:05Z</time>
      </trkpt>
      <trkpt lat="45.02359" lon="5.51449">
        <ele>1163</ele>
        <time>2010-05-22T14:00:11Z</time>
      </trkpt>
      <trkpt lat="45.02356" lon="5.51443">
        <ele>1163</ele>
        <time>2010-05-22T14:00:16Z</time>
      </trkpt>
      <trkpt lat="45.02347" lon="5.5143">
        <ele>1165</ele>
        <time>2010-05-22T14:00:22Z</time>
      </trkpt>
      <trkpt lat="45.02341" lon="5.51415">
        <ele>1166</ele>
        <time>2010-05-22T14:00:29Z</time>
      </trkpt>
      <trkpt lat="45.02334" lon="5.514">
        <ele>1166</ele>
        <time>2010-05-22T14:00:35Z</time>
      </trkpt>
      <trkpt lat="45.0233" lon="5.51388">
        <ele>1168</ele>
        <time>2010-05-22T14:00:41Z</time>
      </trkpt>
      <trkpt lat="45.02326" lon="5.51372">
        <ele>1169</ele>
        <time>2010-05-22T14:00:46Z</time>
      </trkpt>
      <trkpt lat="45.02326" lon="5.51355">
        <ele>1169</ele>
        <time>2010-05-22T14:00:52Z</time>
      </trkpt>
      <trkpt lat="45.02324" lon="5.51339">
        <ele>1170</ele>
        <time>2010-05-22T14:00:58Z</time>
      </trkpt>
      <trkpt lat="45.02322" lon="5.51324">
        <ele>1171</ele>
        <time>2010-05-22T14:01:04Z</time>
      </trkpt>
      <trkpt lat="45.02315" lon="5.51311">
        <ele>1176</ele>
        <time>2010-05-22T14:01:11Z</time>
      </trkpt>
      <trkpt lat="45.02313" lon="5.51298">
        <ele>1179</ele>
        <time>2010-05-22T14:01:17Z</time>
      </trkpt>
      <trkpt lat="45.02307" lon="5.51284">
        <ele>1182</ele>
        <time>2010-05-22T14:01:23Z</time>
      </trkpt>
      <trkpt lat="45.02301" lon="5.51272">
        <ele>1183</ele>
        <time>2010-05-22T14:01:28Z</time>
      </trkpt>
      <trkpt lat="45.02296" lon="5.51258">
        <ele>1183</ele>
        <time>2010-05-22T14:01:34Z</time>
      </trkpt>
      <trkpt lat="45.02289" lon="5.51241">
        <ele>1182</ele>
        <time>2010-05-22T14:01:40Z</time>
      </trkpt>
      <trkpt lat="45.02281" lon="5.51221">
        <ele>1179</ele>
        <time>2010-05-22T14:01:46Z</time>
      </trkpt>
      <trkpt lat="45.02272" lon="5.512">
        <ele>1179</ele>
        <time>2010-05-22T14:01:52Z</time>
      </trkpt>
      <trkpt lat="45.02262" lon="5.51178">
        <ele>1179</ele>
        <time>2010-05-22T14:01:58Z</time>
      </trkpt>
      <trkpt lat="45.02255" lon="5.51166">
        <ele>1181</ele>
        <time>2010-05-22T14:02:03Z</time>
      </trkpt>
      <trkpt lat="45.02245" lon="5.51151">
        <ele>1182</ele>
        <time>2010-05-22T14:02:10Z</time>
      </trkpt>
      <trkpt lat="45.02236" lon="5.51139">
        <ele>1187</ele>
        <time>2010-05-22T14:02:15Z</time>
      </trkpt>
      <trkpt lat="45.02227" lon="5.51133">
        <ele>1191</ele>
        <time>2010-05-22T14:02:20Z</time>
      </trkpt>
      <trkpt lat="45.02219" lon="5.51121">
        <ele>1196</ele>
        <time>2010-05-22T14:02:27Z</time>
      </trkpt>
      <trkpt lat="45.02211" lon="5.51108">
        <ele>1200</ele>
        <time>2010-05-22T14:02:33Z</time>
      </trkpt>
      <trkpt lat="45.02204" lon="5.51093">
        <ele>1200</ele>
        <time>2010-05-22T14:02:39Z</time>
      </trkpt>
      <trkpt lat="45.02196" lon="5.51081">
        <ele>1200</ele>
        <time>2010-05-22T14:02:45Z</time>
      </trkpt>
      <trkpt lat="45.02192" lon="5.51063">
        <ele>1200</ele>
        <time>2010-05-22T14:02:51Z</time>
      </trkpt>
      <trkpt lat="45.02187" lon="5.5105">
        <ele>1200</ele>
        <time>2010-05-22T14:02:56Z</time>
      </trkpt>
      <trkpt lat="45.02177" lon="5.51034">
        <ele>1200</ele>
        <time>2010-05-22T14:03:03Z</time>
      </trkpt>
      <trkpt lat="45.02171" lon="5.51015">
        <ele>1200</ele>
        <time>2010-05-22T14:03:08Z</time>
      </trkpt>
      <trkpt lat="45.02168" lon="5.50999">
        <ele>1200</ele>
        <time>2010-05-22T14:03:13Z</time>
      </trkpt>
      <trkpt lat="45.02167" lon="5.50989">
        <ele>1200</ele>
        <time>2010-05-22T14:03:18Z</time>
      </trkpt>
      <trkpt lat="45.02163" lon="5.50972">
        <ele>1200</ele>
        <time>2010-05-22T14:03:24Z</time>
      </trkpt>
      <trkpt lat="45.0216" lon="5.5096">
        <ele>1199</ele>
        <time>2010-05-22T14:03:30Z</time>
      </trkpt>
      <trkpt lat="45.02157" lon="5.50945">
        <ele>1197</ele>
        <time>2010-05-22T14:03:35Z</time>
      </trkpt>
      <trkpt lat="45.02155" lon="5.50924">
        <ele>1193</ele>
        <time>2010-05-22T14:03:42Z</time>
      </trkpt>
      <trkpt lat="45.02152" lon="5.50915">
        <ele>1193</ele>
        <time>2010-05-22T14:03:47Z</time>
      </trkpt>
      <trkpt lat="45.02146" lon="5.50904">
        <ele>1193</ele>
        <time>2010-05-22T14:03:54Z</time>
      </trkpt>
      <trkpt lat="45.02141" lon="5.50896">
        <ele>1193</ele>
        <time>2010-05-22T14:03:59Z</time>
      </trkpt>
      <trkpt lat="45.02136" lon="5.50885">
        <ele>1193</ele>
        <time>2010-05-22T14:04:05Z</time>
      </trkpt>
      <trkpt lat="45.0213" lon="5.50873">
        <ele>1193</ele>
        <time>2010-05-22T14:04:10Z</time>
      </trkpt>
      <trkpt lat="45.02125" lon="5.50862">
        <ele>1193</ele>
        <time>2010-05-22T14:04:16Z</time>
      </trkpt>
      <trkpt lat="45.02122" lon="5.50846">
        <ele>1193</ele>
        <time>2010-05-22T14:04:21Z</time>
      </trkpt>
      <trkpt lat="45.02121" lon="5.50827">
        <ele>1193</ele>
        <time>2010-05-22T14:04:27Z</time>
      </trkpt>
      <trkpt lat="45.0212" lon="5.50811">
        <ele>1193</ele>
        <time>2010-05-22T14:04:32Z</time>
      </trkpt>
      <trkpt lat="45.02118" lon="5.50788">
        <ele>1193</ele>
        <time>2010-05-22T14:04:40Z</time>
      </trkpt>
      <trkpt lat="45.02117" lon="5.50775">
        <ele>1194</ele>
        <time>2010-05-22T14:04:50Z</time>
      </trkpt>
      <trkpt lat="45.02115" lon="5.50771">
        <ele>1196</ele>
        <time>2010-05-22T14:05:01Z</time>
      </trkpt>
      <trkpt lat="45.02113" lon="5.50758">
        <ele>1197</ele>
        <time>2010-05-22T14:05:06Z</time>
      </trkpt>
      <trkpt lat="45.02108" lon="5.50742">
        <ele>1197</ele>
        <time>2010-05-22T14:05:11Z</time>
      </trkpt>
      <trkpt lat="45.02104" lon="5.50726">
        <ele>1198</ele>
        <time>2010-05-22T14:05:17Z</time>
      </trkpt>
      <trkpt lat="45.021" lon="5.50702">
        <ele>1203</ele>
        <time>2010-05-22T14:05:22Z</time>
      </trkpt>
      <trkpt lat="45.02101" lon="5.5068">
        <ele>1205</ele>
        <time>2010-05-22T14:05:28Z</time>
      </trkpt>
      <trkpt lat="45.02103" lon="5.50661">
        <ele>1205</ele>
        <time>2010-05-22T14:05:34Z</time>
      </trkpt>
      <trkpt lat="45.021" lon="5.50643">
        <ele>1205</ele>
        <time>2010-05-22T14:05:41Z</time>
      </trkpt>
      <trkpt lat="45.0209" lon="5.50639">
        <ele>1206</ele>
        <time>2010-05-22T14:05:46Z</time>
      </trkpt>
      <trkpt lat="45.02081" lon="5.5064">
        <ele>1206</ele>
        <time>2010-05-22T14:05:51Z</time>
      </trkpt>
      <trkpt lat="45.02068" lon="5.50639">
        <ele>1207</ele>
        <time>2010-05-22T14:05:57Z</time>
      </trkpt>
      <trkpt lat="45.02056" lon="5.50633">
        <ele>1208</ele>
        <time>2010-05-22T14:06:03Z</time>
      </trkpt>
      <trkpt lat="45.02041" lon="5.50628">
        <ele>1208</ele>
        <time>2010-05-22T14:06:08Z</time>
      </trkpt>
      <trkpt lat="45.02018" lon="5.50622">
        <ele>1208</ele>
        <time>2010-05-22T14:06:14Z</time>
      </trkpt>
      <trkpt lat="45.02005" lon="5.50618">
        <ele>1208</ele>
        <time>2010-05-22T14:06:19Z</time>
      </trkpt>
      <trkpt lat="45.01992" lon="5.50612">
        <ele>1208</ele>
        <time>2010-05-22T14:06:25Z</time>
      </trkpt>
      <trkpt lat="45.01979" lon="5.50607">
        <ele>1212</ele>
        <time>2010-05-22T14:06:32Z</time>
      </trkpt>
      <trkpt lat="45.01969" lon="5.50598">
        <ele>1214</ele>
        <time>2010-05-22T14:06:37Z</time>
      </trkpt>
      <trkpt lat="45.01961" lon="5.5059">
        <ele>1216</ele>
        <time>2010-05-22T14:06:42Z</time>
      </trkpt>
      <trkpt lat="45.01951" lon="5.50582">
        <ele>1217</ele>
        <time>2010-05-22T14:06:48Z</time>
      </trkpt>
      <trkpt lat="45.01943" lon="5.50578">
        <ele>1219</ele>
        <time>2010-05-22T14:06:53Z</time>
      </trkpt>
      <trkpt lat="45.01932" lon="5.50568">
        <ele>1220</ele>
        <time>2010-05-22T14:06:59Z</time>
      </trkpt>
      <trkpt lat="45.01923" lon="5.50564">
        <ele>1220</ele>
        <time>2010-05-22T14:07:05Z</time>
      </trkpt>
      <trkpt lat="45.01914" lon="5.50554">
        <ele>1220</ele>
        <time>2010-05-22T14:07:11Z</time>
      </trkpt>
      <trkpt lat="45.01898" lon="5.50542">
        <ele>1220</ele>
        <time>2010-05-22T14:07:17Z</time>
      </trkpt>
      <trkpt lat="45.01883" lon="5.50534">
        <ele>1220</ele>
        <time>2010-05-22T14:07:23Z</time>
      </trkpt>
      <trkpt lat="45.01867" lon="5.50523">
        <ele>1220</ele>
        <time>2010-05-22T14:07:28Z</time>
      </trkpt>
      <trkpt lat="45.01852" lon="5.50514">
        <ele>1220</ele>
        <time>2010-05-22T14:07:35Z</time>
      </trkpt>
      <trkpt lat="45.01835" lon="5.50502">
        <ele>1223</ele>
        <time>2010-05-22T14:07:42Z</time>
      </trkpt>
      <trkpt lat="45.01821" lon="5.50492">
        <ele>1228</ele>
        <time>2010-05-22T14:07:48Z</time>
      </trkpt>
      <trkpt lat="45.01809" lon="5.5049">
        <ele>1231</ele>
        <time>2010-05-22T14:07:54Z</time>
      </trkpt>
      <trkpt lat="45.01802" lon="5.50486">
        <ele>1233</ele>
        <time>2010-05-22T14:08:00Z</time>
      </trkpt>
      <trkpt lat="45.01787" lon="5.50476">
        <ele>1236</ele>
        <time>2010-05-22T14:08:07Z</time>
      </trkpt>
      <trkpt lat="45.01775" lon="5.50472">
        <ele>1237</ele>
        <time>2010-05-22T14:08:13Z</time>
      </trkpt>
      <trkpt lat="45.01764" lon="5.5047">
        <ele>1237</ele>
        <time>2010-05-22T14:08:20Z</time>
      </trkpt>
      <trkpt lat="45.0175" lon="5.50469">
        <ele>1237</ele>
        <time>2010-05-22T14:08:25Z</time>
      </trkpt>
      <trkpt lat="45.0174" lon="5.50467">
        <ele>1238</ele>
        <time>2010-05-22T14:08:32Z</time>
      </trkpt>
      <trkpt lat="45.01732" lon="5.50465">
        <ele>1239</ele>
        <time>2010-05-22T14:08:37Z</time>
      </trkpt>
      <trkpt lat="45.01724" lon="5.50457">
        <ele>1239</ele>
        <time>2010-05-22T14:08:43Z</time>
      </trkpt>
      <trkpt lat="45.01716" lon="5.50452">
        <ele>1241</ele>
        <time>2010-05-22T14:08:49Z</time>
      </trkpt>
      <trkpt lat="45.01698" lon="5.50453">
        <ele>1246</ele>
        <time>2010-05-22T14:08:55Z</time>
      </trkpt>
      <trkpt lat="45.01687" lon="5.50452">
        <ele>1246</ele>
        <time>2010-05-22T14:09:02Z</time>
      </trkpt>
      <trkpt lat="45.01676" lon="5.50457">
        <ele>1246</ele>
        <time>2010-05-22T14:09:07Z</time>
      </trkpt>
      <trkpt lat="45.0167" lon="5.50461">
        <ele>1245</ele>
        <time>2010-05-22T14:09:12Z</time>
      </trkpt>
      <trkpt lat="45.01663" lon="5.50471">
        <ele>1244</ele>
        <time>2010-05-22T14:09:18Z</time>
      </trkpt>
      <trkpt lat="45.01663" lon="5.50477">
        <ele>1244</ele>
        <time>2010-05-22T14:09:23Z</time>
      </trkpt>
      <trkpt lat="45.01668" lon="5.50485">
        <ele>1244</ele>
        <time>2010-05-22T14:09:31Z</time>
      </trkpt>
      <trkpt lat="45.01672" lon="5.50497">
        <ele>1244</ele>
        <time>2010-05-22T14:09:36Z</time>
      </trkpt>
      <trkpt lat="45.01674" lon="5.50513">
        <ele>1244</ele>
        <time>2010-05-22T14:09:42Z</time>
      </trkpt>
      <trkpt lat="45.01701" lon="5.50521">
        <ele>1244</ele>
        <time>2010-05-22T14:09:47Z</time>
      </trkpt>
      <trkpt lat="45.0174" lon="5.50532">
        <ele>1244</ele>
        <time>2010-05-22T14:09:53Z</time>
      </trkpt>
      <trkpt lat="45.01768" lon="5.50549">
        <ele>1245</ele>
        <time>2010-05-22T14:09:59Z</time>
      </trkpt>
      <trkpt lat="45.01796" lon="5.50575">
        <ele>1245</ele>
        <time>2010-05-22T14:10:04Z</time>
      </trkpt>
      <trkpt lat="45.01824" lon="5.50598">
        <ele>1245</ele>
        <time>2010-05-22T14:10:09Z</time>
      </trkpt>
      <trkpt lat="45.01835" lon="5.50629">
        <ele>1245</ele>
        <time>2010-05-22T14:10:15Z</time>
      </trkpt>
      <trkpt lat="45.01825" lon="5.50671">
        <ele>1245</ele>
        <time>2010-05-22T14:10:21Z</time>
      </trkpt>
      <trkpt lat="45.01827" lon="5.50725">
        <ele>1241</ele>
        <time>2010-05-22T14:10:26Z</time>
      </trkpt>
      <trkpt lat="45.01856" lon="5.50762">
        <ele>1234</ele>
        <time>2010-05-22T14:10:31Z</time>
      </trkpt>
      <trkpt lat="45.0189" lon="5.50799">
        <ele>1227</ele>
        <time>2010-05-22T14:10:38Z</time>
      </trkpt>
      <trkpt lat="45.01905" lon="5.50826">
        <ele>1222</ele>
        <time>2010-05-22T14:10:43Z</time>
      </trkpt>
      <trkpt lat="45.01913" lon="5.5086">
        <ele>1217</ele>
        <time>2010-05-22T14:10:50Z</time>
      </trkpt>
      <trkpt lat="45.01916" lon="5.50872">
        <ele>1212</ele>
        <time>2010-05-22T14:10:55Z</time>
      </trkpt>
      <trkpt lat="45.0191" lon="5.50877">
        <ele>1210</ele>
        <time>2010-05-22T14:11:02Z</time>
      </trkpt>
      <trkpt lat="45.01902" lon="5.5088">
        <ele>1210</ele>
        <time>2010-05-22T14:11:08Z</time>
      </trkpt>
      <trkpt lat="45.01893" lon="5.50884">
        <ele>1210</ele>
        <time>2010-05-22T14:11:13Z</time>
      </trkpt>
      <trkpt lat="45.01879" lon="5.5088">
        <ele>1210</ele>
        <time>2010-05-22T14:11:18Z</time>
      </trkpt>
      <trkpt lat="45.01861" lon="5.50876">
        <ele>1208</ele>
        <time>2010-05-22T14:11:24Z</time>
      </trkpt>
      <trkpt lat="45.01842" lon="5.50873">
        <ele>1206</ele>
        <time>2010-05-22T14:11:29Z</time>
      </trkpt>
      <trkpt lat="45.01826" lon="5.5086">
        <ele>1206</ele>
        <time>2010-05-22T14:11:34Z</time>
      </trkpt>
      <trkpt lat="45.01808" lon="5.50843">
        <ele>1206</ele>
        <time>2010-05-22T14:11:39Z</time>
      </trkpt>
      <trkpt lat="45.0179" lon="5.50831">
        <ele>1206</ele>
        <time>2010-05-22T14:11:45Z</time>
      </trkpt>
      <trkpt lat="45.01772" lon="5.50834">
        <ele>1206</ele>
        <time>2010-05-22T14:11:50Z</time>
      </trkpt>
      <trkpt lat="45.01755" lon="5.50832">
        <ele>1206</ele>
        <time>2010-05-22T14:11:55Z</time>
      </trkpt>
      <trkpt lat="45.01734" lon="5.50825">
        <ele>1206</ele>
        <time>2010-05-22T14:12:01Z</time>
      </trkpt>
      <trkpt lat="45.01713" lon="5.50826">
        <ele>1206</ele>
        <time>2010-05-22T14:12:07Z</time>
      </trkpt>
      <trkpt lat="45.01687" lon="5.50819">
        <ele>1205</ele>
        <time>2010-05-22T14:12:12Z</time>
      </trkpt>
      <trkpt lat="45.01671" lon="5.50816">
        <ele>1205</ele>
        <time>2010-05-22T14:12:17Z</time>
      </trkpt>
      <trkpt lat="45.01648" lon="5.50822">
        <ele>1205</ele>
        <time>2010-05-22T14:12:23Z</time>
      </trkpt>
      <trkpt lat="45.01625" lon="5.50833">
        <ele>1204</ele>
        <time>2010-05-22T14:12:28Z</time>
      </trkpt>
      <trkpt lat="45.01612" lon="5.50824">
        <ele>1204</ele>
        <time>2010-05-22T14:12:33Z</time>
      </trkpt>
      <trkpt lat="45.01598" lon="5.50817">
        <ele>1204</ele>
        <time>2010-05-22T14:12:39Z</time>
      </trkpt>
      <trkpt lat="45.01571" lon="5.50808">
        <ele>1206</ele>
        <time>2010-05-22T14:12:45Z</time>
      </trkpt>
      <trkpt lat="45.01556" lon="5.508">
        <ele>1206</ele>
        <time>2010-05-22T14:12:52Z</time>
      </trkpt>
      <trkpt lat="45.01551" lon="5.50797">
        <ele>1208</ele>
        <time>2010-05-22T14:12:58Z</time>
      </trkpt>
      <trkpt lat="45.0155" lon="5.50796">
        <ele>1208</ele>
        <time>2010-05-22T14:13:04Z</time>
      </trkpt>
      <trkpt lat="45.01552" lon="5.50796">
        <ele>1208</ele>
        <time>2010-05-22T14:13:15Z</time>
      </trkpt>
      <trkpt lat="45.0155" lon="5.50797">
        <ele>1213</ele>
        <time>2010-05-22T14:13:29Z</time>
      </trkpt>
      <trkpt lat="45.01547" lon="5.50799">
        <ele>1217</ele>
        <time>2010-05-22T14:13:43Z</time>
      </trkpt>
      <trkpt lat="45.01544" lon="5.508">
        <ele>1217</ele>
        <time>2010-05-22T14:13:49Z</time>
      </trkpt>
      <trkpt lat="45.01543" lon="5.50801">
        <ele>1217</ele>
        <time>2010-05-22T14:13:55Z</time>
      </trkpt>
      <trkpt lat="45.01548" lon="5.508">
        <ele>1214</ele>
        <time>2010-05-22T14:14:01Z</time>
      </trkpt>
      <trkpt lat="45.0155" lon="5.50799">
        <ele>1208</ele>
        <time>2010-05-22T14:14:12Z</time>
      </trkpt>
      <trkpt lat="45.01552" lon="5.50799">
        <ele>1203</ele>
        <time>2010-05-22T14:14:20Z</time>
      </trkpt>
      <trkpt lat="45.01555" lon="5.50798">
        <ele>1202</ele>
        <time>2010-05-22T14:14:29Z</time>
      </trkpt>
      <trkpt lat="45.01555" lon="5.50797">
        <ele>1200</ele>
        <time>2010-05-22T14:15:02Z</time>
      </trkpt>
      <trkpt lat="45.01548" lon="5.50792">
        <ele>1200</ele>
        <time>2010-05-22T14:15:07Z</time>
      </trkpt>
      <trkpt lat="45.01536" lon="5.50783">
        <ele>1202</ele>
        <time>2010-05-22T14:15:12Z</time>
      </trkpt>
      <trkpt lat="45.01529" lon="5.50777">
        <ele>1205</ele>
        <time>2010-05-22T14:15:17Z</time>
      </trkpt>
      <trkpt lat="45.0152" lon="5.50768">
        <ele>1207</ele>
        <time>2010-05-22T14:15:23Z</time>
      </trkpt>
      <trkpt lat="45.01515" lon="5.50754">
        <ele>1207</ele>
        <time>2010-05-22T14:15:28Z</time>
      </trkpt>
      <trkpt lat="45.01507" lon="5.50737">
        <ele>1207</ele>
        <time>2010-05-22T14:15:34Z</time>
      </trkpt>
      <trkpt lat="45.01498" lon="5.5072">
        <ele>1208</ele>
        <time>2010-05-22T14:15:40Z</time>
      </trkpt>
      <trkpt lat="45.01488" lon="5.50711">
        <ele>1208</ele>
        <time>2010-05-22T14:15:46Z</time>
      </trkpt>
      <trkpt lat="45.01479" lon="5.50702">
        <ele>1208</ele>
        <time>2010-05-22T14:15:51Z</time>
      </trkpt>
      <trkpt lat="45.01469" lon="5.50691">
        <ele>1209</ele>
        <time>2010-05-22T14:15:56Z</time>
      </trkpt>
      <trkpt lat="45.01459" lon="5.5068">
        <ele>1211</ele>
        <time>2010-05-22T14:16:02Z</time>
      </trkpt>
      <trkpt lat="45.0145" lon="5.50669">
        <ele>1213</ele>
        <time>2010-05-22T14:16:07Z</time>
      </trkpt>
      <trkpt lat="45.01443" lon="5.5066">
        <ele>1213</ele>
        <time>2010-05-22T14:16:13Z</time>
      </trkpt>
      <trkpt lat="45.0144" lon="5.50652">
        <ele>1214</ele>
        <time>2010-05-22T14:16:18Z</time>
      </trkpt>
      <trkpt lat="45.01433" lon="5.50641">
        <ele>1218</ele>
        <time>2010-05-22T14:16:24Z</time>
      </trkpt>
      <trkpt lat="45.01426" lon="5.50633">
        <ele>1223</ele>
        <time>2010-05-22T14:16:30Z</time>
      </trkpt>
      <trkpt lat="45.01417" lon="5.50626">
        <ele>1225</ele>
        <time>2010-05-22T14:16:35Z</time>
      </trkpt>
      <trkpt lat="45.01408" lon="5.5062">
        <ele>1225</ele>
        <time>2010-05-22T14:16:40Z</time>
      </trkpt>
      <trkpt lat="45.01403" lon="5.50613">
        <ele>1225</ele>
        <time>2010-05-22T14:16:46Z</time>
      </trkpt>
      <trkpt lat="45.01399" lon="5.50607">
        <ele>1225</ele>
        <time>2010-05-22T14:16:51Z</time>
      </trkpt>
      <trkpt lat="45.01394" lon="5.506">
        <ele>1228</ele>
        <time>2010-05-22T14:16:57Z</time>
      </trkpt>
      <trkpt lat="45.01386" lon="5.50593">
        <ele>1230</ele>
        <time>2010-05-22T14:17:02Z</time>
      </trkpt>
      <trkpt lat="45.01376" lon="5.50584">
        <ele>1230</ele>
        <time>2010-05-22T14:17:08Z</time>
      </trkpt>
      <trkpt lat="45.01368" lon="5.50575">
        <ele>1230</ele>
        <time>2010-05-22T14:17:17Z</time>
      </trkpt>
      <trkpt lat="45.0136" lon="5.50569">
        <ele>1232</ele>
        <time>2010-05-22T14:17:22Z</time>
      </trkpt>
      <trkpt lat="45.0135" lon="5.50561">
        <ele>1232</ele>
        <time>2010-05-22T14:17:29Z</time>
      </trkpt>
      <trkpt lat="45.01342" lon="5.50557">
        <ele>1234</ele>
        <time>2010-05-22T14:17:34Z</time>
      </trkpt>
      <trkpt lat="45.01336" lon="5.50552">
        <ele>1238</ele>
        <time>2010-05-22T14:17:41Z</time>
      </trkpt>
      <trkpt lat="45.01324" lon="5.50549">
        <ele>1240</ele>
        <time>2010-05-22T14:17:47Z</time>
      </trkpt>
      <trkpt lat="45.01318" lon="5.50548">
        <ele>1243</ele>
        <time>2010-05-22T14:17:52Z</time>
      </trkpt>
      <trkpt lat="45.01307" lon="5.50543">
        <ele>1243</ele>
        <time>2010-05-22T14:17:58Z</time>
      </trkpt>
      <trkpt lat="45.01301" lon="5.5054">
        <ele>1243</ele>
        <time>2010-05-22T14:18:03Z</time>
      </trkpt>
      <trkpt lat="45.01294" lon="5.50537">
        <ele>1245</ele>
        <time>2010-05-22T14:18:09Z</time>
      </trkpt>
      <trkpt lat="45.01283" lon="5.50533">
        <ele>1247</ele>
        <time>2010-05-22T14:18:16Z</time>
      </trkpt>
      <trkpt lat="45.01276" lon="5.5053">
        <ele>1248</ele>
        <time>2010-05-22T14:18:22Z</time>
      </trkpt>
      <trkpt lat="45.01267" lon="5.50526">
        <ele>1249</ele>
        <time>2010-05-22T14:18:27Z</time>
      </trkpt>
      <trkpt lat="45.01257" lon="5.50519">
        <ele>1250</ele>
        <time>2010-05-22T14:18:36Z</time>
      </trkpt>
      <trkpt lat="45.01248" lon="5.50513">
        <ele>1250</ele>
        <time>2010-05-22T14:18:43Z</time>
      </trkpt>
      <trkpt lat="45.0124" lon="5.50506">
        <ele>1250</ele>
        <time>2010-05-22T14:18:51Z</time>
      </trkpt>
      <trkpt lat="45.01231" lon="5.505">
        <ele>1252</ele>
        <time>2010-05-22T14:18:56Z</time>
      </trkpt>
      <trkpt lat="45.01223" lon="5.50494">
        <ele>1253</ele>
        <time>2010-05-22T14:19:02Z</time>
      </trkpt>
      <trkpt lat="45.01218" lon="5.50491">
        <ele>1255</ele>
        <time>2010-05-22T14:19:08Z</time>
      </trkpt>
      <trkpt lat="45.0121" lon="5.50484">
        <ele>1257</ele>
        <time>2010-05-22T14:19:14Z</time>
      </trkpt>
      <trkpt lat="45.01202" lon="5.5048">
        <ele>1257</ele>
        <time>2010-05-22T14:19:20Z</time>
      </trkpt>
      <trkpt lat="45.01193" lon="5.50475">
        <ele>1257</ele>
        <time>2010-05-22T14:19:27Z</time>
      </trkpt>
      <trkpt lat="45.01187" lon="5.50471">
        <ele>1257</ele>
        <time>2010-05-22T14:19:33Z</time>
      </trkpt>
      <trkpt lat="45.01178" lon="5.50465">
        <ele>1257</ele>
        <time>2010-05-22T14:19:39Z</time>
      </trkpt>
      <trkpt lat="45.01171" lon="5.50462">
        <ele>1259</ele>
        <time>2010-05-22T14:19:45Z</time>
      </trkpt>
      <trkpt lat="45.01159" lon="5.50456">
        <ele>1263</ele>
        <time>2010-05-22T14:19:52Z</time>
      </trkpt>
      <trkpt lat="45.01152" lon="5.50451">
        <ele>1264</ele>
        <time>2010-05-22T14:19:58Z</time>
      </trkpt>
      <trkpt lat="45.01145" lon="5.50444">
        <ele>1264</ele>
        <time>2010-05-22T14:20:04Z</time>
      </trkpt>
      <trkpt lat="45.01138" lon="5.50437">
        <ele>1264</ele>
        <time>2010-05-22T14:20:10Z</time>
      </trkpt>
      <trkpt lat="45.0113" lon="5.50434">
        <ele>1264</ele>
        <time>2010-05-22T14:20:17Z</time>
      </trkpt>
      <trkpt lat="45.01118" lon="5.50433">
        <ele>1267</ele>
        <time>2010-05-22T14:20:24Z</time>
      </trkpt>
      <trkpt lat="45.0111" lon="5.50432">
        <ele>1268</ele>
        <time>2010-05-22T14:20:29Z</time>
      </trkpt>
      <trkpt lat="45.01101" lon="5.50427">
        <ele>1270</ele>
        <time>2010-05-22T14:20:36Z</time>
      </trkpt>
      <trkpt lat="45.01094" lon="5.50424">
        <ele>1271</ele>
        <time>2010-05-22T14:20:42Z</time>
      </trkpt>
      <trkpt lat="45.01084" lon="5.50422">
        <ele>1271</ele>
        <time>2010-05-22T14:20:48Z</time>
      </trkpt>
      <trkpt lat="45.01073" lon="5.50418">
        <ele>1271</ele>
        <time>2010-05-22T14:20:54Z</time>
      </trkpt>
      <trkpt lat="45.01066" lon="5.50416">
        <ele>1273</ele>
        <time>2010-05-22T14:20:59Z</time>
      </trkpt>
      <trkpt lat="45.01058" lon="5.50415">
        <ele>1275</ele>
        <time>2010-05-22T14:21:04Z</time>
      </trkpt>
      <trkpt lat="45.01049" lon="5.50409">
        <ele>1276</ele>
        <time>2010-05-22T14:21:10Z</time>
      </trkpt>
      <trkpt lat="45.01036" lon="5.50404">
        <ele>1276</ele>
        <time>2010-05-22T14:21:16Z</time>
      </trkpt>
      <trkpt lat="45.01022" lon="5.50398">
        <ele>1276</ele>
        <time>2010-05-22T14:21:22Z</time>
      </trkpt>
      <trkpt lat="45.0101" lon="5.50397">
        <ele>1276</ele>
        <time>2010-05-22T14:21:28Z</time>
      </trkpt>
      <trkpt lat="45.00998" lon="5.50389">
        <ele>1276</ele>
        <time>2010-05-22T14:21:33Z</time>
      </trkpt>
      <trkpt lat="45.00989" lon="5.50385">
        <ele>1276</ele>
        <time>2010-05-22T14:21:38Z</time>
      </trkpt>
      <trkpt lat="45.00989" lon="5.50384">
        <ele>1276</ele>
        <time>2010-05-22T14:21:46Z</time>
      </trkpt>
      <trkpt lat="45.00989" lon="5.50385">
        <ele>1277</ele>
        <time>2010-05-22T14:21:56Z</time>
      </trkpt>
      <trkpt lat="45.00987" lon="5.50381">
        <ele>1277</ele>
        <time>2010-05-22T14:22:02Z</time>
      </trkpt>
      <trkpt lat="45.00981" lon="5.50372">
        <ele>1276</ele>
        <time>2010-05-22T14:22:07Z</time>
      </trkpt>
      <trkpt lat="45.00976" lon="5.50364">
        <ele>1276</ele>
        <time>2010-05-22T14:22:12Z</time>
      </trkpt>
      <trkpt lat="45.00967" lon="5.50353">
        <ele>1279</ele>
        <time>2010-05-22T14:22:17Z</time>
      </trkpt>
      <trkpt lat="45.00955" lon="5.50345">
        <ele>1283</ele>
        <time>2010-05-22T14:22:22Z</time>
      </trkpt>
      <trkpt lat="45.00933" lon="5.50343">
        <ele>1287</ele>
        <time>2010-05-22T14:22:29Z</time>
      </trkpt>
      <trkpt lat="45.00911" lon="5.50332">
        <ele>1289</ele>
        <time>2010-05-22T14:22:35Z</time>
      </trkpt>
      <trkpt lat="45.00903" lon="5.50319">
        <ele>1289</ele>
        <time>2010-05-22T14:22:41Z</time>
      </trkpt>
      <trkpt lat="45.00893" lon="5.50306">
        <ele>1289</ele>
        <time>2010-05-22T14:22:47Z</time>
      </trkpt>
      <trkpt lat="45.00884" lon="5.50293">
        <ele>1289</ele>
        <time>2010-05-22T14:22:53Z</time>
      </trkpt>
      <trkpt lat="45.00879" lon="5.50282">
        <ele>1289</ele>
        <time>2010-05-22T14:22:59Z</time>
      </trkpt>
      <trkpt lat="45.00873" lon="5.50269">
        <ele>1290</ele>
        <time>2010-05-22T14:23:05Z</time>
      </trkpt>
      <trkpt lat="45.00868" lon="5.50259">
        <ele>1293</ele>
        <time>2010-05-22T14:23:11Z</time>
      </trkpt>
      <trkpt lat="45.00865" lon="5.50248">
        <ele>1298</ele>
        <time>2010-05-22T14:23:16Z</time>
      </trkpt>
      <trkpt lat="45.00862" lon="5.50238">
        <ele>1300</ele>
        <time>2010-05-22T14:23:21Z</time>
      </trkpt>
      <trkpt lat="45.0086" lon="5.50227">
        <ele>1300</ele>
        <time>2010-05-22T14:23:27Z</time>
      </trkpt>
      <trkpt lat="45.00855" lon="5.50216">
        <ele>1300</ele>
        <time>2010-05-22T14:23:32Z</time>
      </trkpt>
      <trkpt lat="45.00853" lon="5.50205">
        <ele>1303</ele>
        <time>2010-05-22T14:23:38Z</time>
      </trkpt>
      <trkpt lat="45.00851" lon="5.50198">
        <ele>1306</ele>
        <time>2010-05-22T14:23:43Z</time>
      </trkpt>
      <trkpt lat="45.00852" lon="5.50187">
        <ele>1307</ele>
        <time>2010-05-22T14:23:49Z</time>
      </trkpt>
      <trkpt lat="45.00858" lon="5.50174">
        <ele>1307</ele>
        <time>2010-05-22T14:23:55Z</time>
      </trkpt>
      <trkpt lat="45.00863" lon="5.50164">
        <ele>1307</ele>
        <time>2010-05-22T14:24:01Z</time>
      </trkpt>
      <trkpt lat="45.00867" lon="5.50154">
        <ele>1307</ele>
        <time>2010-05-22T14:24:07Z</time>
      </trkpt>
      <trkpt lat="45.0087" lon="5.50144">
        <ele>1307</ele>
        <time>2010-05-22T14:24:13Z</time>
      </trkpt>
      <trkpt lat="45.00881" lon="5.50131">
        <ele>1304</ele>
        <time>2010-05-22T14:24:20Z</time>
      </trkpt>
      <trkpt lat="45.00888" lon="5.50122">
        <ele>1299</ele>
        <time>2010-05-22T14:24:26Z</time>
      </trkpt>
      <trkpt lat="45.00898" lon="5.50108">
        <ele>1294</ele>
        <time>2010-05-22T14:24:32Z</time>
      </trkpt>
      <trkpt lat="45.00903" lon="5.50094">
        <ele>1293</ele>
        <time>2010-05-22T14:24:37Z</time>
      </trkpt>
      <trkpt lat="45.0091" lon="5.5008">
        <ele>1293</ele>
        <time>2010-05-22T14:24:43Z</time>
      </trkpt>
      <trkpt lat="45.00908" lon="5.50066">
        <ele>1296</ele>
        <time>2010-05-22T14:24:49Z</time>
      </trkpt>
      <trkpt lat="45.00905" lon="5.50055">
        <ele>1301</ele>
        <time>2010-05-22T14:24:55Z</time>
      </trkpt>
      <trkpt lat="45.00908" lon="5.50042">
        <ele>1305</ele>
        <time>2010-05-22T14:25:02Z</time>
      </trkpt>
      <trkpt lat="45.00916" lon="5.50029">
        <ele>1310</ele>
        <time>2010-05-22T14:25:08Z</time>
      </trkpt>
      <trkpt lat="45.00921" lon="5.50019">
        <ele>1313</ele>
        <time>2010-05-22T14:25:13Z</time>
      </trkpt>
      <trkpt lat="45.00923" lon="5.50008">
        <ele>1313</ele>
        <time>2010-05-22T14:25:19Z</time>
      </trkpt>
      <trkpt lat="45.00928" lon="5.49996">
        <ele>1314</ele>
        <time>2010-05-22T14:25:25Z</time>
      </trkpt>
      <trkpt lat="45.00931" lon="5.49985">
        <ele>1316</ele>
        <time>2010-05-22T14:25:30Z</time>
      </trkpt>
      <trkpt lat="45.00934" lon="5.49977">
        <ele>1316</ele>
        <time>2010-05-22T14:25:35Z</time>
      </trkpt>
      <trkpt lat="45.00935" lon="5.49969">
        <ele>1318</ele>
        <time>2010-05-22T14:25:40Z</time>
      </trkpt>
      <trkpt lat="45.00934" lon="5.4996">
        <ele>1319</ele>
        <time>2010-05-22T14:25:45Z</time>
      </trkpt>
      <trkpt lat="45.00935" lon="5.49949">
        <ele>1321</ele>
        <time>2010-05-22T14:25:51Z</time>
      </trkpt>
      <trkpt lat="45.00935" lon="5.49934">
        <ele>1321</ele>
        <time>2010-05-22T14:26:00Z</time>
      </trkpt>
      <trkpt lat="45.00934" lon="5.49925">
        <ele>1321</ele>
        <time>2010-05-22T14:26:05Z</time>
      </trkpt>
      <trkpt lat="45.00933" lon="5.49916">
        <ele>1322</ele>
        <time>2010-05-22T14:26:11Z</time>
      </trkpt>
      <trkpt lat="45.0093" lon="5.49907">
        <ele>1326</ele>
        <time>2010-05-22T14:26:19Z</time>
      </trkpt>
      <trkpt lat="45.00929" lon="5.49895">
        <ele>1329</ele>
        <time>2010-05-22T14:26:25Z</time>
      </trkpt>
      <trkpt lat="45.0093" lon="5.49883">
        <ele>1329</ele>
        <time>2010-05-22T14:26:30Z</time>
      </trkpt>
      <trkpt lat="45.00931" lon="5.49873">
        <ele>1329</ele>
        <time>2010-05-22T14:26:35Z</time>
      </trkpt>
      <trkpt lat="45.00933" lon="5.49863">
        <ele>1329</ele>
        <time>2010-05-22T14:26:41Z</time>
      </trkpt>
      <trkpt lat="45.00931" lon="5.49854">
        <ele>1328</ele>
        <time>2010-05-22T14:26:46Z</time>
      </trkpt>
      <trkpt lat="45.00929" lon="5.49845">
        <ele>1328</ele>
        <time>2010-05-22T14:26:52Z</time>
      </trkpt>
      <trkpt lat="45.00919" lon="5.49837">
        <ele>1332</ele>
        <time>2010-05-22T14:26:58Z</time>
      </trkpt>
      <trkpt lat="45.00913" lon="5.49833">
        <ele>1337</ele>
        <time>2010-05-22T14:27:05Z</time>
      </trkpt>
      <trkpt lat="45.00907" lon="5.4983">
        <ele>1339</ele>
        <time>2010-05-22T14:27:10Z</time>
      </trkpt>
      <trkpt lat="45.00898" lon="5.49824">
        <ele>1342</ele>
        <time>2010-05-22T14:27:17Z</time>
      </trkpt>
      <trkpt lat="45.00891" lon="5.49815">
        <ele>1344</ele>
        <time>2010-05-22T14:27:23Z</time>
      </trkpt>
      <trkpt lat="45.00887" lon="5.49806">
        <ele>1345</ele>
        <time>2010-05-22T14:27:29Z</time>
      </trkpt>
      <trkpt lat="45.00885" lon="5.49798">
        <ele>1345</ele>
        <time>2010-05-22T14:27:35Z</time>
      </trkpt>
      <trkpt lat="45.00887" lon="5.49791">
        <ele>1344</ele>
        <time>2010-05-22T14:27:41Z</time>
      </trkpt>
      <trkpt lat="45.00891" lon="5.49781">
        <ele>1343</ele>
        <time>2010-05-22T14:27:46Z</time>
      </trkpt>
      <trkpt lat="45.00895" lon="5.49761">
        <ele>1338</ele>
        <time>2010-05-22T14:27:52Z</time>
      </trkpt>
      <trkpt lat="45.00901" lon="5.49742">
        <ele>1335</ele>
        <time>2010-05-22T14:27:57Z</time>
      </trkpt>
      <trkpt lat="45.00911" lon="5.49719">
        <ele>1327</ele>
        <time>2010-05-22T14:28:04Z</time>
      </trkpt>
      <trkpt lat="45.00917" lon="5.49706">
        <ele>1322</ele>
        <time>2010-05-22T14:28:09Z</time>
      </trkpt>
      <trkpt lat="45.0092" lon="5.49697">
        <ele>1321</ele>
        <time>2010-05-22T14:28:14Z</time>
      </trkpt>
      <trkpt lat="45.00917" lon="5.49694">
        <ele>1322</ele>
        <time>2010-05-22T14:28:19Z</time>
      </trkpt>
      <trkpt lat="45.00913" lon="5.49695">
        <ele>1326</ele>
        <time>2010-05-22T14:28:25Z</time>
      </trkpt>
      <trkpt lat="45.00911" lon="5.49696">
        <ele>1332</ele>
        <time>2010-05-22T14:28:30Z</time>
      </trkpt>
      <trkpt lat="45.00911" lon="5.49695">
        <ele>1342</ele>
        <time>2010-05-22T14:28:41Z</time>
      </trkpt>
      <trkpt lat="45.00912" lon="5.49693">
        <ele>1343</ele>
        <time>2010-05-22T14:28:46Z</time>
      </trkpt>
      <trkpt lat="45.00914" lon="5.49689">
        <ele>1336</ele>
        <time>2010-05-22T14:28:54Z</time>
      </trkpt>
      <trkpt lat="45.00913" lon="5.49691">
        <ele>1333</ele>
        <time>2010-05-22T14:29:23Z</time>
      </trkpt>
      <trkpt lat="45.00913" lon="5.49693">
        <ele>1333</ele>
        <time>2010-05-22T14:29:33Z</time>
      </trkpt>
      <trkpt lat="45.00914" lon="5.49694">
        <ele>1333</ele>
        <time>2010-05-22T14:29:44Z</time>
      </trkpt>
      <trkpt lat="45.00913" lon="5.49695">
        <ele>1333</ele>
        <time>2010-05-22T14:30:10Z</time>
      </trkpt>
      <trkpt lat="45.00914" lon="5.49694">
        <ele>1333</ele>
        <time>2010-05-22T14:30:38Z</time>
      </trkpt>
      <trkpt lat="45.00913" lon="5.49694">
        <ele>1333</ele>
        <time>2010-05-22T14:30:46Z</time>
      </trkpt>
      <trkpt lat="45.00913" lon="5.49695">
        <ele>1333</ele>
        <time>2010-05-22T14:31:01Z</time>
      </trkpt>
      <trkpt lat="45.00914" lon="5.49696">
        <ele>1333</ele>
        <time>2010-05-22T14:31:09Z</time>
      </trkpt>
      <trkpt lat="45.00915" lon="5.49695">
        <ele>1334</ele>
        <time>2010-05-22T14:31:14Z</time>
      </trkpt>
      <trkpt lat="45.00914" lon="5.49693">
        <ele>1337</ele>
        <time>2010-05-22T14:31:20Z</time>
      </trkpt>
      <trkpt lat="45.00915" lon="5.49691">
        <ele>1341</ele>
        <time>2010-05-22T14:31:27Z</time>
      </trkpt>
      <trkpt lat="45.00915" lon="5.4969">
        <ele>1343</ele>
        <time>2010-05-22T14:31:32Z</time>
      </trkpt>
      <trkpt lat="45.00916" lon="5.49687">
        <ele>1339</ele>
        <time>2010-05-22T14:31:58Z</time>
      </trkpt>
      <trkpt lat="45.00918" lon="5.49686">
        <ele>1339</ele>
        <time>2010-05-22T14:32:09Z</time>
      </trkpt>
      <trkpt lat="45.00919" lon="5.49685">
        <ele>1338</ele>
        <time>2010-05-22T14:32:14Z</time>
      </trkpt>
      <trkpt lat="45.00918" lon="5.49684">
        <ele>1336</ele>
        <time>2010-05-22T14:32:33Z</time>
      </trkpt>
      <trkpt lat="45.00915" lon="5.49685">
        <ele>1336</ele>
        <time>2010-05-22T14:32:42Z</time>
      </trkpt>
      <trkpt lat="45.00916" lon="5.49685">
        <ele>1336</ele>
        <time>2010-05-22T14:32:47Z</time>
      </trkpt>
      <trkpt lat="45.00919" lon="5.49685">
        <ele>1334</ele>
        <time>2010-05-22T14:32:57Z</time>
      </trkpt>
      <trkpt lat="45.00924" lon="5.49685">
        <ele>1330</ele>
        <time>2010-05-22T14:33:05Z</time>
      </trkpt>
      <trkpt lat="45.0093" lon="5.49686">
        <ele>1329</ele>
        <time>2010-05-22T14:33:11Z</time>
      </trkpt>
      <trkpt lat="45.0094" lon="5.49681">
        <ele>1329</ele>
        <time>2010-05-22T14:33:17Z</time>
      </trkpt>
      <trkpt lat="45.00958" lon="5.49676">
        <ele>1329</ele>
        <time>2010-05-22T14:33:22Z</time>
      </trkpt>
      <trkpt lat="45.00971" lon="5.49675">
        <ele>1330</ele>
        <time>2010-05-22T14:33:29Z</time>
      </trkpt>
      <trkpt lat="45.00989" lon="5.4968">
        <ele>1337</ele>
        <time>2010-05-22T14:33:36Z</time>
      </trkpt>
      <trkpt lat="45.01012" lon="5.49688">
        <ele>1347</ele>
        <time>2010-05-22T14:33:43Z</time>
      </trkpt>
      <trkpt lat="45.01041" lon="5.497">
        <ele>1354</ele>
        <time>2010-05-22T14:33:50Z</time>
      </trkpt>
      <trkpt lat="45.01072" lon="5.49698">
        <ele>1357</ele>
        <time>2010-05-22T14:33:56Z</time>
      </trkpt>
      <trkpt lat="45.01116" lon="5.49713">
        <ele>1357</ele>
        <time>2010-05-22T14:34:02Z</time>
      </trkpt>
      <trkpt lat="45.01157" lon="5.49728">
        <ele>1356</ele>
        <time>2010-05-22T14:34:09Z</time>
      </trkpt>
      <trkpt lat="45.01182" lon="5.49757">
        <ele>1353</ele>
        <time>2010-05-22T14:34:14Z</time>
      </trkpt>
      <trkpt lat="45.01204" lon="5.49786">
        <ele>1349</ele>
        <time>2010-05-22T14:34:20Z</time>
      </trkpt>
      <trkpt lat="45.01218" lon="5.49806">
        <ele>1346</ele>
        <time>2010-05-22T14:34:25Z</time>
      </trkpt>
      <trkpt lat="45.01218" lon="5.49823">
        <ele>1346</ele>
        <time>2010-05-22T14:34:30Z</time>
      </trkpt>
      <trkpt lat="45.01214" lon="5.49833">
        <ele>1346</ele>
        <time>2010-05-22T14:34:36Z</time>
      </trkpt>
      <trkpt lat="45.01215" lon="5.49852">
        <ele>1346</ele>
        <time>2010-05-22T14:34:41Z</time>
      </trkpt>
      <trkpt lat="45.01236" lon="5.49866">
        <ele>1346</ele>
        <time>2010-05-22T14:34:46Z</time>
      </trkpt>
      <trkpt lat="45.01271" lon="5.49859">
        <ele>1343</ele>
        <time>2010-05-22T14:34:52Z</time>
      </trkpt>
      <trkpt lat="45.01301" lon="5.49819">
        <ele>1338</ele>
        <time>2010-05-22T14:34:58Z</time>
      </trkpt>
      <trkpt lat="45.01319" lon="5.49784">
        <ele>1329</ele>
        <time>2010-05-22T14:35:05Z</time>
      </trkpt>
      <trkpt lat="45.01336" lon="5.49766">
        <ele>1319</ele>
        <time>2010-05-22T14:35:11Z</time>
      </trkpt>
      <trkpt lat="45.01356" lon="5.49746">
        <ele>1315</ele>
        <time>2010-05-22T14:35:17Z</time>
      </trkpt>
      <trkpt lat="45.01379" lon="5.49728">
        <ele>1311</ele>
        <time>2010-05-22T14:35:22Z</time>
      </trkpt>
      <trkpt lat="45.01403" lon="5.49713">
        <ele>1311</ele>
        <time>2010-05-22T14:35:27Z</time>
      </trkpt>
      <trkpt lat="45.01427" lon="5.49689">
        <ele>1311</ele>
        <time>2010-05-22T14:35:32Z</time>
      </trkpt>
      <trkpt lat="45.01438" lon="5.49672">
        <ele>1311</ele>
        <time>2010-05-22T14:35:37Z</time>
      </trkpt>
      <trkpt lat="45.01452" lon="5.49664">
        <ele>1311</ele>
        <time>2010-05-22T14:35:43Z</time>
      </trkpt>
      <trkpt lat="45.01481" lon="5.49654">
        <ele>1311</ele>
        <time>2010-05-22T14:35:49Z</time>
      </trkpt>
      <trkpt lat="45.01513" lon="5.49645">
        <ele>1312</ele>
        <time>2010-05-22T14:35:56Z</time>
      </trkpt>
      <trkpt lat="45.01535" lon="5.49635">
        <ele>1312</ele>
        <time>2010-05-22T14:36:03Z</time>
      </trkpt>
      <trkpt lat="45.01547" lon="5.49631">
        <ele>1315</ele>
        <time>2010-05-22T14:36:09Z</time>
      </trkpt>
      <trkpt lat="45.01574" lon="5.49617">
        <ele>1316</ele>
        <time>2010-05-22T14:36:16Z</time>
      </trkpt>
      <trkpt lat="45.01592" lon="5.4961">
        <ele>1316</ele>
        <time>2010-05-22T14:36:21Z</time>
      </trkpt>
      <trkpt lat="45.01605" lon="5.49594">
        <ele>1316</ele>
        <time>2010-05-22T14:36:26Z</time>
      </trkpt>
      <trkpt lat="45.01615" lon="5.49571">
        <ele>1315</ele>
        <time>2010-05-22T14:36:31Z</time>
      </trkpt>
      <trkpt lat="45.01633" lon="5.49543">
        <ele>1315</ele>
        <time>2010-05-22T14:36:37Z</time>
      </trkpt>
      <trkpt lat="45.01642" lon="5.4952">
        <ele>1315</ele>
        <time>2010-05-22T14:36:42Z</time>
      </trkpt>
      <trkpt lat="45.01673" lon="5.49517">
        <ele>1319</ele>
        <time>2010-05-22T14:36:48Z</time>
      </trkpt>
      <trkpt lat="45.01711" lon="5.49516">
        <ele>1327</ele>
        <time>2010-05-22T14:36:53Z</time>
      </trkpt>
      <trkpt lat="45.01751" lon="5.49521">
        <ele>1332</ele>
        <time>2010-05-22T14:36:59Z</time>
      </trkpt>
      <trkpt lat="45.01785" lon="5.49529">
        <ele>1337</ele>
        <time>2010-05-22T14:37:06Z</time>
      </trkpt>
      <trkpt lat="45.01829" lon="5.49543">
        <ele>1342</ele>
        <time>2010-05-22T14:37:12Z</time>
      </trkpt>
      <trkpt lat="45.01867" lon="5.49549">
        <ele>1342</ele>
        <time>2010-05-22T14:37:17Z</time>
      </trkpt>
      <trkpt lat="45.0192" lon="5.4955">
        <ele>1343</ele>
        <time>2010-05-22T14:37:24Z</time>
      </trkpt>
      <trkpt lat="45.01968" lon="5.49557">
        <ele>1343</ele>
        <time>2010-05-22T14:37:30Z</time>
      </trkpt>
      <trkpt lat="45.02002" lon="5.49575">
        <ele>1343</ele>
        <time>2010-05-22T14:37:35Z</time>
      </trkpt>
      <trkpt lat="45.0202" lon="5.49578">
        <ele>1343</ele>
        <time>2010-05-22T14:37:41Z</time>
      </trkpt>
      <trkpt lat="45.02035" lon="5.49584">
        <ele>1341</ele>
        <time>2010-05-22T14:37:47Z</time>
      </trkpt>
      <trkpt lat="45.02047" lon="5.49588">
        <ele>1341</ele>
        <time>2010-05-22T14:37:52Z</time>
      </trkpt>
      <trkpt lat="45.02054" lon="5.49593">
        <ele>1341</ele>
        <time>2010-05-22T14:37:58Z</time>
      </trkpt>
      <trkpt lat="45.02054" lon="5.49596">
        <ele>1338</ele>
        <time>2010-05-22T14:38:10Z</time>
      </trkpt>
      <trkpt lat="45.02055" lon="5.496">
        <ele>1337</ele>
        <time>2010-05-22T14:38:21Z</time>
      </trkpt>
      <trkpt lat="45.02068" lon="5.496">
        <ele>1337</ele>
        <time>2010-05-22T14:38:26Z</time>
      </trkpt>
      <trkpt lat="45.02101" lon="5.49586">
        <ele>1335</ele>
        <time>2010-05-22T14:38:33Z</time>
      </trkpt>
      <trkpt lat="45.02139" lon="5.49561">
        <ele>1333</ele>
        <time>2010-05-22T14:38:38Z</time>
      </trkpt>
      <trkpt lat="45.02166" lon="5.49555">
        <ele>1333</ele>
        <time>2010-05-22T14:38:44Z</time>
      </trkpt>
      <trkpt lat="45.02198" lon="5.49556">
        <ele>1332</ele>
        <time>2010-05-22T14:38:51Z</time>
      </trkpt>
      <trkpt lat="45.02223" lon="5.49548">
        <ele>1327</ele>
        <time>2010-05-22T14:38:57Z</time>
      </trkpt>
      <trkpt lat="45.02239" lon="5.49539">
        <ele>1324</ele>
        <time>2010-05-22T14:39:03Z</time>
      </trkpt>
      <trkpt lat="45.0226" lon="5.49534">
        <ele>1321</ele>
        <time>2010-05-22T14:39:09Z</time>
      </trkpt>
      <trkpt lat="45.02284" lon="5.49527">
        <ele>1317</ele>
        <time>2010-05-22T14:39:15Z</time>
      </trkpt>
      <trkpt lat="45.02308" lon="5.49516">
        <ele>1313</ele>
        <time>2010-05-22T14:39:20Z</time>
      </trkpt>
      <trkpt lat="45.02327" lon="5.4951">
        <ele>1309</ele>
        <time>2010-05-22T14:39:26Z</time>
      </trkpt>
      <trkpt lat="45.02345" lon="5.49507">
        <ele>1309</ele>
        <time>2010-05-22T14:39:31Z</time>
      </trkpt>
      <trkpt lat="45.02369" lon="5.49497">
        <ele>1309</ele>
        <time>2010-05-22T14:39:37Z</time>
      </trkpt>
      <trkpt lat="45.02387" lon="5.49489">
        <ele>1311</ele>
        <time>2010-05-22T14:39:42Z</time>
      </trkpt>
      <trkpt lat="45.02426" lon="5.49517">
        <ele>1315</ele>
        <time>2010-05-22T14:39:47Z</time>
      </trkpt>
      <trkpt lat="45.02469" lon="5.49572">
        <ele>1320</ele>
        <time>2010-05-22T14:39:54Z</time>
      </trkpt>
      <trkpt lat="45.0249" lon="5.49595">
        <ele>1320</ele>
        <time>2010-05-22T14:39:59Z</time>
      </trkpt>
      <trkpt lat="45.02512" lon="5.4958">
        <ele>1320</ele>
        <time>2010-05-22T14:40:04Z</time>
      </trkpt>
      <trkpt lat="45.02538" lon="5.49595">
        <ele>1320</ele>
        <time>2010-05-22T14:40:09Z</time>
      </trkpt>
      <trkpt lat="45.02558" lon="5.49607">
        <ele>1318</ele>
        <time>2010-05-22T14:40:15Z</time>
      </trkpt>
      <trkpt lat="45.0258" lon="5.49612">
        <ele>1316</ele>
        <time>2010-05-22T14:40:21Z</time>
      </trkpt>
      <trkpt lat="45.02588" lon="5.49632">
        <ele>1315</ele>
        <time>2010-05-22T14:40:27Z</time>
      </trkpt>
      <trkpt lat="45.02585" lon="5.49671">
        <ele>1317</ele>
        <time>2010-05-22T14:40:32Z</time>
      </trkpt>
      <trkpt lat="45.0259" lon="5.49703">
        <ele>1318</ele>
        <time>2010-05-22T14:40:38Z</time>
      </trkpt>
      <trkpt lat="45.0262" lon="5.49717">
        <ele>1318</ele>
        <time>2010-05-22T14:40:44Z</time>
      </trkpt>
      <trkpt lat="45.0265" lon="5.49701">
        <ele>1316</ele>
        <time>2010-05-22T14:40:51Z</time>
      </trkpt>
      <trkpt lat="45.02665" lon="5.49688">
        <ele>1312</ele>
        <time>2010-05-22T14:40:56Z</time>
      </trkpt>
      <trkpt lat="45.02694" lon="5.49663">
        <ele>1307</ele>
        <time>2010-05-22T14:41:03Z</time>
      </trkpt>
      <trkpt lat="45.02718" lon="5.49656">
        <ele>1302</ele>
        <time>2010-05-22T14:41:09Z</time>
      </trkpt>
      <trkpt lat="45.02762" lon="5.49661">
        <ele>1298</ele>
        <time>2010-05-22T14:41:15Z</time>
      </trkpt>
      <trkpt lat="45.02796" lon="5.49654">
        <ele>1296</ele>
        <time>2010-05-22T14:41:21Z</time>
      </trkpt>
      <trkpt lat="45.02817" lon="5.49644">
        <ele>1298</ele>
        <time>2010-05-22T14:41:27Z</time>
      </trkpt>
      <trkpt lat="45.02832" lon="5.49627">
        <ele>1299</ele>
        <time>2010-05-22T14:41:32Z</time>
      </trkpt>
      <trkpt lat="45.02856" lon="5.49601">
        <ele>1303</ele>
        <time>2010-05-22T14:41:38Z</time>
      </trkpt>
      <trkpt lat="45.02875" lon="5.49576">
        <ele>1305</ele>
        <time>2010-05-22T14:41:44Z</time>
      </trkpt>
      <trkpt lat="45.02896" lon="5.49559">
        <ele>1305</ele>
        <time>2010-05-22T14:41:49Z</time>
      </trkpt>
      <trkpt lat="45.02928" lon="5.49547">
        <ele>1303</ele>
        <time>2010-05-22T14:41:56Z</time>
      </trkpt>
      <trkpt lat="45.02959" lon="5.49545">
        <ele>1301</ele>
        <time>2010-05-22T14:42:03Z</time>
      </trkpt>
      <trkpt lat="45.03002" lon="5.49553">
        <ele>1305</ele>
        <time>2010-05-22T14:42:09Z</time>
      </trkpt>
      <trkpt lat="45.03017" lon="5.49559">
        <ele>1308</ele>
        <time>2010-05-22T14:42:15Z</time>
      </trkpt>
      <trkpt lat="45.03032" lon="5.49558">
        <ele>1305</ele>
        <time>2010-05-22T14:42:21Z</time>
      </trkpt>
      <trkpt lat="45.03049" lon="5.49552">
        <ele>1302</ele>
        <time>2010-05-22T14:42:27Z</time>
      </trkpt>
      <trkpt lat="45.03067" lon="5.49541">
        <ele>1299</ele>
        <time>2010-05-22T14:42:34Z</time>
      </trkpt>
      <trkpt lat="45.03077" lon="5.4954">
        <ele>1297</ele>
        <time>2010-05-22T14:42:40Z</time>
      </trkpt>
      <trkpt lat="45.03094" lon="5.49533">
        <ele>1298</ele>
        <time>2010-05-22T14:42:46Z</time>
      </trkpt>
      <trkpt lat="45.03108" lon="5.49528">
        <ele>1298</ele>
        <time>2010-05-22T14:42:52Z</time>
      </trkpt>
      <trkpt lat="45.03125" lon="5.49525">
        <ele>1302</ele>
        <time>2010-05-22T14:42:58Z</time>
      </trkpt>
      <trkpt lat="45.03147" lon="5.49543">
        <ele>1307</ele>
        <time>2010-05-22T14:43:03Z</time>
      </trkpt>
      <trkpt lat="45.03174" lon="5.49579">
        <ele>1314</ele>
        <time>2010-05-22T14:43:09Z</time>
      </trkpt>
      <trkpt lat="45.03199" lon="5.49606">
        <ele>1318</ele>
        <time>2010-05-22T14:43:15Z</time>
      </trkpt>
      <trkpt lat="45.03226" lon="5.49606">
        <ele>1323</ele>
        <time>2010-05-22T14:43:21Z</time>
      </trkpt>
      <trkpt lat="45.0325" lon="5.49611">
        <ele>1327</ele>
        <time>2010-05-22T14:43:26Z</time>
      </trkpt>
      <trkpt lat="45.03292" lon="5.49641">
        <ele>1330</ele>
        <time>2010-05-22T14:43:33Z</time>
      </trkpt>
      <trkpt lat="45.03317" lon="5.4965">
        <ele>1330</ele>
        <time>2010-05-22T14:43:39Z</time>
      </trkpt>
      <trkpt lat="45.0332" lon="5.49653">
        <ele>1330</ele>
        <time>2010-05-22T14:43:47Z</time>
      </trkpt>
      <trkpt lat="45.03329" lon="5.49654">
        <ele>1331</ele>
        <time>2010-05-22T14:43:52Z</time>
      </trkpt>
      <trkpt lat="45.03339" lon="5.49648">
        <ele>1332</ele>
        <time>2010-05-22T14:44:01Z</time>
      </trkpt>
      <trkpt lat="45.03357" lon="5.4964">
        <ele>1327</ele>
        <time>2010-05-22T14:44:07Z</time>
      </trkpt>
      <trkpt lat="45.03389" lon="5.49641">
        <ele>1323</ele>
        <time>2010-05-22T14:44:12Z</time>
      </trkpt>
      <trkpt lat="45.03419" lon="5.49669">
        <ele>1319</ele>
        <time>2010-05-22T14:44:17Z</time>
      </trkpt>
      <trkpt lat="45.03427" lon="5.49713">
        <ele>1315</ele>
        <time>2010-05-22T14:44:23Z</time>
      </trkpt>
      <trkpt lat="45.03422" lon="5.49767">
        <ele>1314</ele>
        <time>2010-05-22T14:44:29Z</time>
      </trkpt>
      <trkpt lat="45.03452" lon="5.49832">
        <ele>1315</ele>
        <time>2010-05-22T14:44:36Z</time>
      </trkpt>
      <trkpt lat="45.03484" lon="5.49889">
        <ele>1315</ele>
        <time>2010-05-22T14:44:42Z</time>
      </trkpt>
      <trkpt lat="45.03498" lon="5.49938">
        <ele>1315</ele>
        <time>2010-05-22T14:44:48Z</time>
      </trkpt>
      <trkpt lat="45.03493" lon="5.49962">
        <ele>1315</ele>
        <time>2010-05-22T14:44:54Z</time>
      </trkpt>
      <trkpt lat="45.03491" lon="5.49972">
        <ele>1311</ele>
        <time>2010-05-22T14:45:00Z</time>
      </trkpt>
      <trkpt lat="45.03493" lon="5.49973">
        <ele>1308</ele>
        <time>2010-05-22T14:45:05Z</time>
      </trkpt>
      <trkpt lat="45.03492" lon="5.49973">
        <ele>1306</ele>
        <time>2010-05-22T14:45:14Z</time>
      </trkpt>
      <trkpt lat="45.03486" lon="5.49979">
        <ele>1304</ele>
        <time>2010-05-22T14:45:20Z</time>
      </trkpt>
      <trkpt lat="45.03484" lon="5.49976">
        <ele>1303</ele>
        <time>2010-05-22T14:45:26Z</time>
      </trkpt>
      <trkpt lat="45.0349" lon="5.49972">
        <ele>1302</ele>
        <time>2010-05-22T14:45:32Z</time>
      </trkpt>
      <trkpt lat="45.03495" lon="5.49971">
        <ele>1301</ele>
        <time>2010-05-22T14:45:37Z</time>
      </trkpt>
      <trkpt lat="45.03499" lon="5.49966">
        <ele>1301</ele>
        <time>2010-05-22T14:45:42Z</time>
      </trkpt>
      <trkpt lat="45.03529" lon="5.4994">
        <ele>1297</ele>
        <time>2010-05-22T14:45:48Z</time>
      </trkpt>
      <trkpt lat="45.03553" lon="5.49919">
        <ele>1293</ele>
        <time>2010-05-22T14:45:54Z</time>
      </trkpt>
      <trkpt lat="45.03562" lon="5.49904">
        <ele>1289</ele>
        <time>2010-05-22T14:45:59Z</time>
      </trkpt>
      <trkpt lat="45.03587" lon="5.49872">
        <ele>1284</ele>
        <time>2010-05-22T14:46:05Z</time>
      </trkpt>
      <trkpt lat="45.03612" lon="5.49846">
        <ele>1277</ele>
        <time>2010-05-22T14:46:10Z</time>
      </trkpt>
      <trkpt lat="45.03648" lon="5.49837">
        <ele>1269</ele>
        <time>2010-05-22T14:46:17Z</time>
      </trkpt>
      <trkpt lat="45.03705" lon="5.49825">
        <ele>1263</ele>
        <time>2010-05-22T14:46:23Z</time>
      </trkpt>
      <trkpt lat="45.03751" lon="5.49818">
        <ele>1264</ele>
        <time>2010-05-22T14:46:28Z</time>
      </trkpt>
      <trkpt lat="45.03796" lon="5.49817">
        <ele>1268</ele>
        <time>2010-05-22T14:46:34Z</time>
      </trkpt>
      <trkpt lat="45.03836" lon="5.49814">
        <ele>1271</ele>
        <time>2010-05-22T14:46:40Z</time>
      </trkpt>
      <trkpt lat="45.03875" lon="5.49805">
        <ele>1271</ele>
        <time>2010-05-22T14:46:46Z</time>
      </trkpt>
      <trkpt lat="45.03917" lon="5.49799">
        <ele>1271</ele>
        <time>2010-05-22T14:46:52Z</time>
      </trkpt>
      <trkpt lat="45.03952" lon="5.4979">
        <ele>1270</ele>
        <time>2010-05-22T14:46:58Z</time>
      </trkpt>
      <trkpt lat="45.03985" lon="5.49779">
        <ele>1270</ele>
        <time>2010-05-22T14:47:04Z</time>
      </trkpt>
      <trkpt lat="45.04013" lon="5.49777">
        <ele>1270</ele>
        <time>2010-05-22T14:47:09Z</time>
      </trkpt>
      <trkpt lat="45.04041" lon="5.49771">
        <ele>1275</ele>
        <time>2010-05-22T14:47:15Z</time>
      </trkpt>
      <trkpt lat="45.04075" lon="5.4978">
        <ele>1279</ele>
        <time>2010-05-22T14:47:20Z</time>
      </trkpt>
      <trkpt lat="45.04111" lon="5.49809">
        <ele>1285</ele>
        <time>2010-05-22T14:47:26Z</time>
      </trkpt>
      <trkpt lat="45.0414" lon="5.49843">
        <ele>1290</ele>
        <time>2010-05-22T14:47:32Z</time>
      </trkpt>
      <trkpt lat="45.04159" lon="5.49865">
        <ele>1290</ele>
        <time>2010-05-22T14:47:37Z</time>
      </trkpt>
      <trkpt lat="45.0418" lon="5.49872">
        <ele>1290</ele>
        <time>2010-05-22T14:47:43Z</time>
      </trkpt>
      <trkpt lat="45.04194" lon="5.49879">
        <ele>1289</ele>
        <time>2010-05-22T14:47:48Z</time>
      </trkpt>
      <trkpt lat="45.04212" lon="5.49891">
        <ele>1289</ele>
        <time>2010-05-22T14:47:53Z</time>
      </trkpt>
      <trkpt lat="45.04242" lon="5.49907">
        <ele>1289</ele>
        <time>2010-05-22T14:48:00Z</time>
      </trkpt>
      <trkpt lat="45.0426" lon="5.4991">
        <ele>1289</ele>
        <time>2010-05-22T14:48:06Z</time>
      </trkpt>
      <trkpt lat="45.04267" lon="5.49902">
        <ele>1286</ele>
        <time>2010-05-22T14:48:11Z</time>
      </trkpt>
      <trkpt lat="45.04272" lon="5.49893">
        <ele>1282</ele>
        <time>2010-05-22T14:48:18Z</time>
      </trkpt>
      <trkpt lat="45.04274" lon="5.49882">
        <ele>1276</ele>
        <time>2010-05-22T14:48:24Z</time>
      </trkpt>
      <trkpt lat="45.04279" lon="5.49871">
        <ele>1271</ele>
        <time>2010-05-22T14:48:30Z</time>
      </trkpt>
      <trkpt lat="45.04284" lon="5.4986">
        <ele>1270</ele>
        <time>2010-05-22T14:48:35Z</time>
      </trkpt>
      <trkpt lat="45.04282" lon="5.49849">
        <ele>1270</ele>
        <time>2010-05-22T14:48:40Z</time>
      </trkpt>
      <trkpt lat="45.0428" lon="5.49835">
        <ele>1270</ele>
        <time>2010-05-22T14:48:46Z</time>
      </trkpt>
      <trkpt lat="45.04277" lon="5.49821">
        <ele>1272</ele>
        <time>2010-05-22T14:48:52Z</time>
      </trkpt>
      <trkpt lat="45.04275" lon="5.49807">
        <ele>1278</ele>
        <time>2010-05-22T14:48:58Z</time>
      </trkpt>
      <trkpt lat="45.0427" lon="5.49788">
        <ele>1282</ele>
        <time>2010-05-22T14:49:04Z</time>
      </trkpt>
      <trkpt lat="45.04266" lon="5.4977">
        <ele>1285</ele>
        <time>2010-05-22T14:49:10Z</time>
      </trkpt>
      <trkpt lat="45.04262" lon="5.49759">
        <ele>1290</ele>
        <time>2010-05-22T14:49:15Z</time>
      </trkpt>
      <trkpt lat="45.04255" lon="5.49753">
        <ele>1295</ele>
        <time>2010-05-22T14:49:20Z</time>
      </trkpt>
      <trkpt lat="45.04247" lon="5.49747">
        <ele>1298</ele>
        <time>2010-05-22T14:49:26Z</time>
      </trkpt>
      <trkpt lat="45.04238" lon="5.49742">
        <ele>1298</ele>
        <time>2010-05-22T14:49:31Z</time>
      </trkpt>
      <trkpt lat="45.04229" lon="5.49735">
        <ele>1298</ele>
        <time>2010-05-22T14:49:38Z</time>
      </trkpt>
      <trkpt lat="45.04219" lon="5.49732">
        <ele>1298</ele>
        <time>2010-05-22T14:49:44Z</time>
      </trkpt>
      <trkpt lat="45.04212" lon="5.49728">
        <ele>1298</ele>
        <time>2010-05-22T14:49:49Z</time>
      </trkpt>
      <trkpt lat="45.04202" lon="5.49722">
        <ele>1298</ele>
        <time>2010-05-22T14:49:56Z</time>
      </trkpt>
      <trkpt lat="45.04191" lon="5.49713">
        <ele>1298</ele>
        <time>2010-05-22T14:50:03Z</time>
      </trkpt>
      <trkpt lat="45.0418" lon="5.49706">
        <ele>1298</ele>
        <time>2010-05-22T14:50:10Z</time>
      </trkpt>
      <trkpt lat="45.04172" lon="5.49701">
        <ele>1298</ele>
        <time>2010-05-22T14:50:16Z</time>
      </trkpt>
      <trkpt lat="45.04164" lon="5.49698">
        <ele>1298</ele>
        <time>2010-05-22T14:50:21Z</time>
      </trkpt>
      <trkpt lat="45.04155" lon="5.49695">
        <ele>1298</ele>
        <time>2010-05-22T14:50:27Z</time>
      </trkpt>
      <trkpt lat="45.04146" lon="5.49692">
        <ele>1299</ele>
        <time>2010-05-22T14:50:33Z</time>
      </trkpt>
      <trkpt lat="45.04139" lon="5.4969">
        <ele>1300</ele>
        <time>2010-05-22T14:50:39Z</time>
      </trkpt>
      <trkpt lat="45.04131" lon="5.49688">
        <ele>1300</ele>
        <time>2010-05-22T14:50:45Z</time>
      </trkpt>
      <trkpt lat="45.04123" lon="5.49684">
        <ele>1300</ele>
        <time>2010-05-22T14:50:51Z</time>
      </trkpt>
      <trkpt lat="45.04113" lon="5.49683">
        <ele>1300</ele>
        <time>2010-05-22T14:50:57Z</time>
      </trkpt>
      <trkpt lat="45.04107" lon="5.49685">
        <ele>1302</ele>
        <time>2010-05-22T14:51:03Z</time>
      </trkpt>
      <trkpt lat="45.041" lon="5.49685">
        <ele>1306</ele>
        <time>2010-05-22T14:51:09Z</time>
      </trkpt>
      <trkpt lat="45.04094" lon="5.49684">
        <ele>1311</ele>
        <time>2010-05-22T14:51:15Z</time>
      </trkpt>
      <trkpt lat="45.04088" lon="5.4968">
        <ele>1313</ele>
        <time>2010-05-22T14:51:22Z</time>
      </trkpt>
      <trkpt lat="45.0408" lon="5.49676">
        <ele>1313</ele>
        <time>2010-05-22T14:51:28Z</time>
      </trkpt>
      <trkpt lat="45.04073" lon="5.49673">
        <ele>1313</ele>
        <time>2010-05-22T14:51:34Z</time>
      </trkpt>
      <trkpt lat="45.04067" lon="5.49673">
        <ele>1313</ele>
        <time>2010-05-22T14:51:39Z</time>
      </trkpt>
      <trkpt lat="45.04057" lon="5.49668">
        <ele>1313</ele>
        <time>2010-05-22T14:51:47Z</time>
      </trkpt>
      <trkpt lat="45.04049" lon="5.49662">
        <ele>1313</ele>
        <time>2010-05-22T14:51:54Z</time>
      </trkpt>
      <trkpt lat="45.04043" lon="5.49657">
        <ele>1313</ele>
        <time>2010-05-22T14:52:00Z</time>
      </trkpt>
      <trkpt lat="45.04033" lon="5.49651">
        <ele>1313</ele>
        <time>2010-05-22T14:52:07Z</time>
      </trkpt>
      <trkpt lat="45.04028" lon="5.49646">
        <ele>1313</ele>
        <time>2010-05-22T14:52:14Z</time>
      </trkpt>
      <trkpt lat="45.04017" lon="5.49642">
        <ele>1313</ele>
        <time>2010-05-22T14:52:22Z</time>
      </trkpt>
      <trkpt lat="45.04009" lon="5.49642">
        <ele>1313</ele>
        <time>2010-05-22T14:52:29Z</time>
      </trkpt>
      <trkpt lat="45.04003" lon="5.4964">
        <ele>1313</ele>
        <time>2010-05-22T14:52:35Z</time>
      </trkpt>
      <trkpt lat="45.03998" lon="5.49638">
        <ele>1313</ele>
        <time>2010-05-22T14:52:40Z</time>
      </trkpt>
      <trkpt lat="45.03987" lon="5.49635">
        <ele>1313</ele>
        <time>2010-05-22T14:52:47Z</time>
      </trkpt>
      <trkpt lat="45.0398" lon="5.49634">
        <ele>1315</ele>
        <time>2010-05-22T14:52:52Z</time>
      </trkpt>
      <trkpt lat="45.03973" lon="5.49633">
        <ele>1317</ele>
        <time>2010-05-22T14:52:58Z</time>
      </trkpt>
      <trkpt lat="45.03964" lon="5.4963">
        <ele>1320</ele>
        <time>2010-05-22T14:53:06Z</time>
      </trkpt>
      <trkpt lat="45.03957" lon="5.49627">
        <ele>1322</ele>
        <time>2010-05-22T14:53:11Z</time>
      </trkpt>
      <trkpt lat="45.0395" lon="5.49625">
        <ele>1322</ele>
        <time>2010-05-22T14:53:17Z</time>
      </trkpt>
      <trkpt lat="45.03943" lon="5.49623">
        <ele>1324</ele>
        <time>2010-05-22T14:53:23Z</time>
      </trkpt>
      <trkpt lat="45.03938" lon="5.49619">
        <ele>1325</ele>
        <time>2010-05-22T14:53:28Z</time>
      </trkpt>
      <trkpt lat="45.0393" lon="5.49617">
        <ele>1326</ele>
        <time>2010-05-22T14:53:34Z</time>
      </trkpt>
      <trkpt lat="45.03923" lon="5.49614">
        <ele>1331</ele>
        <time>2010-05-22T14:53:40Z</time>
      </trkpt>
      <trkpt lat="45.03918" lon="5.49607">
        <ele>1336</ele>
        <time>2010-05-22T14:53:46Z</time>
      </trkpt>
      <trkpt lat="45.03914" lon="5.496">
        <ele>1336</ele>
        <time>2010-05-22T14:53:52Z</time>
      </trkpt>
      <trkpt lat="45.03908" lon="5.49594">
        <ele>1336</ele>
        <time>2010-05-22T14:54:00Z</time>
      </trkpt>
      <trkpt lat="45.03904" lon="5.49589">
        <ele>1336</ele>
        <time>2010-05-22T14:54:05Z</time>
      </trkpt>
      <trkpt lat="45.039" lon="5.49585">
        <ele>1336</ele>
        <time>2010-05-22T14:54:10Z</time>
      </trkpt>
      <trkpt lat="45.03894" lon="5.4958">
        <ele>1336</ele>
        <time>2010-05-22T14:54:16Z</time>
      </trkpt>
      <trkpt lat="45.03889" lon="5.49575">
        <ele>1336</ele>
        <time>2010-05-22T14:54:22Z</time>
      </trkpt>
      <trkpt lat="45.03883" lon="5.49573">
        <ele>1336</ele>
        <time>2010-05-22T14:54:28Z</time>
      </trkpt>
      <trkpt lat="45.03878" lon="5.49571">
        <ele>1336</ele>
        <time>2010-05-22T14:54:33Z</time>
      </trkpt>
      <trkpt lat="45.03872" lon="5.49565">
        <ele>1341</ele>
        <time>2010-05-22T14:54:39Z</time>
      </trkpt>
      <trkpt lat="45.03867" lon="5.4956">
        <ele>1341</ele>
        <time>2010-05-22T14:54:46Z</time>
      </trkpt>
      <trkpt lat="45.0386" lon="5.49554">
        <ele>1341</ele>
        <time>2010-05-22T14:54:51Z</time>
      </trkpt>
      <trkpt lat="45.03856" lon="5.49549">
        <ele>1341</ele>
        <time>2010-05-22T14:54:58Z</time>
      </trkpt>
      <trkpt lat="45.03849" lon="5.49543">
        <ele>1341</ele>
        <time>2010-05-22T14:55:07Z</time>
      </trkpt>
      <trkpt lat="45.03845" lon="5.49539">
        <ele>1341</ele>
        <time>2010-05-22T14:55:12Z</time>
      </trkpt>
      <trkpt lat="45.03838" lon="5.49533">
        <ele>1346</ele>
        <time>2010-05-22T14:55:19Z</time>
      </trkpt>
      <trkpt lat="45.03831" lon="5.49525">
        <ele>1346</ele>
        <time>2010-05-22T14:55:26Z</time>
      </trkpt>
      <trkpt lat="45.03826" lon="5.49517">
        <ele>1349</ele>
        <time>2010-05-22T14:55:32Z</time>
      </trkpt>
      <trkpt lat="45.03825" lon="5.49508">
        <ele>1351</ele>
        <time>2010-05-22T14:55:37Z</time>
      </trkpt>
      <trkpt lat="45.03825" lon="5.49501">
        <ele>1353</ele>
        <time>2010-05-22T14:55:43Z</time>
      </trkpt>
      <trkpt lat="45.03823" lon="5.49491">
        <ele>1353</ele>
        <time>2010-05-22T14:55:51Z</time>
      </trkpt>
      <trkpt lat="45.0382" lon="5.49479">
        <ele>1356</ele>
        <time>2010-05-22T14:55:56Z</time>
      </trkpt>
      <trkpt lat="45.0382" lon="5.49472">
        <ele>1356</ele>
        <time>2010-05-22T14:56:01Z</time>
      </trkpt>
      <trkpt lat="45.0382" lon="5.49465">
        <ele>1356</ele>
        <time>2010-05-22T14:56:06Z</time>
      </trkpt>
      <trkpt lat="45.03817" lon="5.49457">
        <ele>1357</ele>
        <time>2010-05-22T14:56:13Z</time>
      </trkpt>
      <trkpt lat="45.0381" lon="5.49451">
        <ele>1360</ele>
        <time>2010-05-22T14:56:18Z</time>
      </trkpt>
      <trkpt lat="45.03802" lon="5.49448">
        <ele>1361</ele>
        <time>2010-05-22T14:56:23Z</time>
      </trkpt>
      <trkpt lat="45.03797" lon="5.49447">
        <ele>1362</ele>
        <time>2010-05-22T14:56:28Z</time>
      </trkpt>
      <trkpt lat="45.03788" lon="5.49449">
        <ele>1362</ele>
        <time>2010-05-22T14:56:35Z</time>
      </trkpt>
      <trkpt lat="45.03781" lon="5.49452">
        <ele>1362</ele>
        <time>2010-05-22T14:56:40Z</time>
      </trkpt>
      <trkpt lat="45.03771" lon="5.49452">
        <ele>1362</ele>
        <time>2010-05-22T14:56:47Z</time>
      </trkpt>
      <trkpt lat="45.03763" lon="5.49451">
        <ele>1362</ele>
        <time>2010-05-22T14:56:52Z</time>
      </trkpt>
      <trkpt lat="45.03758" lon="5.4945">
        <ele>1362</ele>
        <time>2010-05-22T14:56:58Z</time>
      </trkpt>
      <trkpt lat="45.03751" lon="5.49447">
        <ele>1362</ele>
        <time>2010-05-22T14:57:04Z</time>
      </trkpt>
      <trkpt lat="45.03743" lon="5.49443">
        <ele>1362</ele>
        <time>2010-05-22T14:57:10Z</time>
      </trkpt>
      <trkpt lat="45.03735" lon="5.49435">
        <ele>1362</ele>
        <time>2010-05-22T14:57:18Z</time>
      </trkpt>
      <trkpt lat="45.03729" lon="5.49431">
        <ele>1363</ele>
        <time>2010-05-22T14:57:23Z</time>
      </trkpt>
      <trkpt lat="45.03724" lon="5.49425">
        <ele>1364</ele>
        <time>2010-05-22T14:57:29Z</time>
      </trkpt>
      <trkpt lat="45.03719" lon="5.49419">
        <ele>1364</ele>
        <time>2010-05-22T14:57:35Z</time>
      </trkpt>
      <trkpt lat="45.03707" lon="5.49414">
        <ele>1365</ele>
        <time>2010-05-22T14:57:43Z</time>
      </trkpt>
      <trkpt lat="45.037" lon="5.49408">
        <ele>1365</ele>
        <time>2010-05-22T14:57:48Z</time>
      </trkpt>
      <trkpt lat="45.03691" lon="5.49404">
        <ele>1365</ele>
        <time>2010-05-22T14:57:54Z</time>
      </trkpt>
      <trkpt lat="45.03685" lon="5.49399">
        <ele>1365</ele>
        <time>2010-05-22T14:57:59Z</time>
      </trkpt>
      <trkpt lat="45.03682" lon="5.49393">
        <ele>1365</ele>
        <time>2010-05-22T14:58:06Z</time>
      </trkpt>
      <trkpt lat="45.03675" lon="5.49384">
        <ele>1365</ele>
        <time>2010-05-22T14:58:12Z</time>
      </trkpt>
      <trkpt lat="45.03669" lon="5.49376">
        <ele>1366</ele>
        <time>2010-05-22T14:58:18Z</time>
      </trkpt>
      <trkpt lat="45.03668" lon="5.49365">
        <ele>1367</ele>
        <time>2010-05-22T14:58:26Z</time>
      </trkpt>
      <trkpt lat="45.03665" lon="5.4936">
        <ele>1369</ele>
        <time>2010-05-22T14:58:32Z</time>
      </trkpt>
      <trkpt lat="45.03669" lon="5.49351">
        <ele>1372</ele>
        <time>2010-05-22T14:58:38Z</time>
      </trkpt>
      <trkpt lat="45.03672" lon="5.49345">
        <ele>1372</ele>
        <time>2010-05-22T14:58:43Z</time>
      </trkpt>
      <trkpt lat="45.03676" lon="5.4934">
        <ele>1372</ele>
        <time>2010-05-22T14:58:49Z</time>
      </trkpt>
      <trkpt lat="45.0368" lon="5.49334">
        <ele>1373</ele>
        <time>2010-05-22T14:58:55Z</time>
      </trkpt>
      <trkpt lat="45.03686" lon="5.49331">
        <ele>1374</ele>
        <time>2010-05-22T14:59:00Z</time>
      </trkpt>
      <trkpt lat="45.03693" lon="5.49328">
        <ele>1375</ele>
        <time>2010-05-22T14:59:05Z</time>
      </trkpt>
      <trkpt lat="45.03701" lon="5.49327">
        <ele>1376</ele>
        <time>2010-05-22T14:59:11Z</time>
      </trkpt>
      <trkpt lat="45.03707" lon="5.49325">
        <ele>1377</ele>
        <time>2010-05-22T14:59:16Z</time>
      </trkpt>
      <trkpt lat="45.03717" lon="5.49326">
        <ele>1382</ele>
        <time>2010-05-22T14:59:21Z</time>
      </trkpt>
      <trkpt lat="45.03727" lon="5.49323">
        <ele>1386</ele>
        <time>2010-05-22T14:59:28Z</time>
      </trkpt>
      <trkpt lat="45.03731" lon="5.49317">
        <ele>1392</ele>
        <time>2010-05-22T14:59:34Z</time>
      </trkpt>
      <trkpt lat="45.03737" lon="5.49316">
        <ele>1392</ele>
        <time>2010-05-22T14:59:39Z</time>
      </trkpt>
      <trkpt lat="45.03745" lon="5.49313">
        <ele>1394</ele>
        <time>2010-05-22T14:59:45Z</time>
      </trkpt>
      <trkpt lat="45.03755" lon="5.49313">
        <ele>1397</ele>
        <time>2010-05-22T14:59:54Z</time>
      </trkpt>
      <trkpt lat="45.0376" lon="5.4931">
        <ele>1399</ele>
        <time>2010-05-22T14:59:59Z</time>
      </trkpt>
      <trkpt lat="45.03764" lon="5.49305">
        <ele>1401</ele>
        <time>2010-05-22T15:00:07Z</time>
      </trkpt>
      <trkpt lat="45.03763" lon="5.493">
        <ele>1404</ele>
        <time>2010-05-22T15:00:14Z</time>
      </trkpt>
      <trkpt lat="45.03769" lon="5.49296">
        <ele>1404</ele>
        <time>2010-05-22T15:00:20Z</time>
      </trkpt>
      <trkpt lat="45.03773" lon="5.49289">
        <ele>1404</ele>
        <time>2010-05-22T15:00:25Z</time>
      </trkpt>
      <trkpt lat="45.03777" lon="5.4928">
        <ele>1404</ele>
        <time>2010-05-22T15:00:30Z</time>
      </trkpt>
      <trkpt lat="45.03785" lon="5.49271">
        <ele>1404</ele>
        <time>2010-05-22T15:00:37Z</time>
      </trkpt>
      <trkpt lat="45.03792" lon="5.49265">
        <ele>1403</ele>
        <time>2010-05-22T15:00:44Z</time>
      </trkpt>
      <trkpt lat="45.03794" lon="5.49251">
        <ele>1403</ele>
        <time>2010-05-22T15:00:50Z</time>
      </trkpt>
      <trkpt lat="45.03798" lon="5.4924">
        <ele>1399</ele>
        <time>2010-05-22T15:00:56Z</time>
      </trkpt>
      <trkpt lat="45.03803" lon="5.49229">
        <ele>1398</ele>
        <time>2010-05-22T15:01:04Z</time>
      </trkpt>
      <trkpt lat="45.03815" lon="5.49219">
        <ele>1398</ele>
        <time>2010-05-22T15:01:09Z</time>
      </trkpt>
      <trkpt lat="45.03821" lon="5.49209">
        <ele>1402</ele>
        <time>2010-05-22T15:01:15Z</time>
      </trkpt>
      <trkpt lat="45.0382" lon="5.49191">
        <ele>1404</ele>
        <time>2010-05-22T15:01:20Z</time>
      </trkpt>
      <trkpt lat="45.03812" lon="5.4916">
        <ele>1404</ele>
        <time>2010-05-22T15:01:25Z</time>
      </trkpt>
      <trkpt lat="45.03797" lon="5.49124">
        <ele>1404</ele>
        <time>2010-05-22T15:01:31Z</time>
      </trkpt>
      <trkpt lat="45.03794" lon="5.49103">
        <ele>1404</ele>
        <time>2010-05-22T15:01:37Z</time>
      </trkpt>
      <trkpt lat="45.03783" lon="5.49093">
        <ele>1405</ele>
        <time>2010-05-22T15:01:42Z</time>
      </trkpt>
      <trkpt lat="45.03776" lon="5.49088">
        <ele>1405</ele>
        <time>2010-05-22T15:01:48Z</time>
      </trkpt>
      <trkpt lat="45.03766" lon="5.49081">
        <ele>1405</ele>
        <time>2010-05-22T15:01:54Z</time>
      </trkpt>
      <trkpt lat="45.03759" lon="5.49073">
        <ele>1405</ele>
        <time>2010-05-22T15:02:00Z</time>
      </trkpt>
      <trkpt lat="45.03758" lon="5.49062">
        <ele>1405</ele>
        <time>2010-05-22T15:02:06Z</time>
      </trkpt>
      <trkpt lat="45.03754" lon="5.4905">
        <ele>1410</ele>
        <time>2010-05-22T15:02:12Z</time>
      </trkpt>
      <trkpt lat="45.03739" lon="5.49039">
        <ele>1415</ele>
        <time>2010-05-22T15:02:18Z</time>
      </trkpt>
      <trkpt lat="45.03721" lon="5.49036">
        <ele>1417</ele>
        <time>2010-05-22T15:02:26Z</time>
      </trkpt>
      <trkpt lat="45.03708" lon="5.49033">
        <ele>1417</ele>
        <time>2010-05-22T15:02:31Z</time>
      </trkpt>
      <trkpt lat="45.03696" lon="5.4903">
        <ele>1416</ele>
        <time>2010-05-22T15:02:37Z</time>
      </trkpt>
      <trkpt lat="45.03685" lon="5.49026">
        <ele>1415</ele>
        <time>2010-05-22T15:02:42Z</time>
      </trkpt>
      <trkpt lat="45.03673" lon="5.49022">
        <ele>1414</ele>
        <time>2010-05-22T15:02:48Z</time>
      </trkpt>
      <trkpt lat="45.03664" lon="5.4902">
        <ele>1414</ele>
        <time>2010-05-22T15:02:54Z</time>
      </trkpt>
      <trkpt lat="45.03655" lon="5.49016">
        <ele>1414</ele>
        <time>2010-05-22T15:03:00Z</time>
      </trkpt>
      <trkpt lat="45.03649" lon="5.49016">
        <ele>1414</ele>
        <time>2010-05-22T15:03:06Z</time>
      </trkpt>
      <trkpt lat="45.03643" lon="5.49012">
        <ele>1414</ele>
        <time>2010-05-22T15:03:15Z</time>
      </trkpt>
      <trkpt lat="45.03639" lon="5.4901">
        <ele>1417</ele>
        <time>2010-05-22T15:03:20Z</time>
      </trkpt>
      <trkpt lat="45.03632" lon="5.49008">
        <ele>1419</ele>
        <time>2010-05-22T15:03:25Z</time>
      </trkpt>
      <trkpt lat="45.03625" lon="5.49004">
        <ele>1421</ele>
        <time>2010-05-22T15:03:30Z</time>
      </trkpt>
      <trkpt lat="45.03617" lon="5.48996">
        <ele>1421</ele>
        <time>2010-05-22T15:03:36Z</time>
      </trkpt>
      <trkpt lat="45.03604" lon="5.48991">
        <ele>1419</ele>
        <time>2010-05-22T15:03:42Z</time>
      </trkpt>
      <trkpt lat="45.03594" lon="5.48985">
        <ele>1416</ele>
        <time>2010-05-22T15:03:48Z</time>
      </trkpt>
      <trkpt lat="45.03583" lon="5.48981">
        <ele>1415</ele>
        <time>2010-05-22T15:03:53Z</time>
      </trkpt>
      <trkpt lat="45.03568" lon="5.48976">
        <ele>1413</ele>
        <time>2010-05-22T15:03:58Z</time>
      </trkpt>
      <trkpt lat="45.03556" lon="5.48979">
        <ele>1411</ele>
        <time>2010-05-22T15:04:03Z</time>
      </trkpt>
      <trkpt lat="45.03548" lon="5.48982">
        <ele>1410</ele>
        <time>2010-05-22T15:04:09Z</time>
      </trkpt>
      <trkpt lat="45.0354" lon="5.48985">
        <ele>1410</ele>
        <time>2010-05-22T15:04:14Z</time>
      </trkpt>
      <trkpt lat="45.03533" lon="5.48993">
        <ele>1412</ele>
        <time>2010-05-22T15:04:20Z</time>
      </trkpt>
      <trkpt lat="45.03523" lon="5.48999">
        <ele>1418</ele>
        <time>2010-05-22T15:04:27Z</time>
      </trkpt>
      <trkpt lat="45.0352" lon="5.49007">
        <ele>1422</ele>
        <time>2010-05-22T15:04:32Z</time>
      </trkpt>
      <trkpt lat="45.03511" lon="5.49008">
        <ele>1431</ele>
        <time>2010-05-22T15:04:38Z</time>
      </trkpt>
      <trkpt lat="45.03501" lon="5.49011">
        <ele>1436</ele>
        <time>2010-05-22T15:04:45Z</time>
      </trkpt>
      <trkpt lat="45.0349" lon="5.49011">
        <ele>1440</ele>
        <time>2010-05-22T15:04:50Z</time>
      </trkpt>
      <trkpt lat="45.03482" lon="5.49011">
        <ele>1442</ele>
        <time>2010-05-22T15:04:56Z</time>
      </trkpt>
      <trkpt lat="45.03469" lon="5.49009">
        <ele>1442</ele>
        <time>2010-05-22T15:05:03Z</time>
      </trkpt>
      <trkpt lat="45.03454" lon="5.49013">
        <ele>1442</ele>
        <time>2010-05-22T15:05:08Z</time>
      </trkpt>
      <trkpt lat="45.03443" lon="5.49016">
        <ele>1443</ele>
        <time>2010-05-22T15:05:14Z</time>
      </trkpt>
      <trkpt lat="45.03435" lon="5.49019">
        <ele>1445</ele>
        <time>2010-05-22T15:05:20Z</time>
      </trkpt>
      <trkpt lat="45.03424" lon="5.49025">
        <ele>1447</ele>
        <time>2010-05-22T15:05:26Z</time>
      </trkpt>
      <trkpt lat="45.03412" lon="5.49026">
        <ele>1447</ele>
        <time>2010-05-22T15:05:32Z</time>
      </trkpt>
      <trkpt lat="45.03396" lon="5.49029">
        <ele>1441</ele>
        <time>2010-05-22T15:05:37Z</time>
      </trkpt>
      <trkpt lat="45.03384" lon="5.49032">
        <ele>1437</ele>
        <time>2010-05-22T15:05:43Z</time>
      </trkpt>
      <trkpt lat="45.03361" lon="5.49032">
        <ele>1429</ele>
        <time>2010-05-22T15:05:51Z</time>
      </trkpt>
      <trkpt lat="45.03338" lon="5.49028">
        <ele>1424</ele>
        <time>2010-05-22T15:05:56Z</time>
      </trkpt>
      <trkpt lat="45.03325" lon="5.49025">
        <ele>1421</ele>
        <time>2010-05-22T15:06:02Z</time>
      </trkpt>
      <trkpt lat="45.03312" lon="5.49023">
        <ele>1421</ele>
        <time>2010-05-22T15:06:07Z</time>
      </trkpt>
      <trkpt lat="45.03299" lon="5.49019">
        <ele>1421</ele>
        <time>2010-05-22T15:06:13Z</time>
      </trkpt>
      <trkpt lat="45.03293" lon="5.49018">
        <ele>1420</ele>
        <time>2010-05-22T15:06:22Z</time>
      </trkpt>
      <trkpt lat="45.03296" lon="5.49017">
        <ele>1420</ele>
        <time>2010-05-22T15:06:27Z</time>
      </trkpt>
      <trkpt lat="45.03302" lon="5.49017">
        <ele>1422</ele>
        <time>2010-05-22T15:06:32Z</time>
      </trkpt>
      <trkpt lat="45.03301" lon="5.49019">
        <ele>1428</ele>
        <time>2010-05-22T15:06:40Z</time>
      </trkpt>
      <trkpt lat="45.033" lon="5.49019">
        <ele>1434</ele>
        <time>2010-05-22T15:06:48Z</time>
      </trkpt>
      <trkpt lat="45.03298" lon="5.4902">
        <ele>1437</ele>
        <time>2010-05-22T15:06:54Z</time>
      </trkpt>
      <trkpt lat="45.03298" lon="5.49025">
        <ele>1442</ele>
        <time>2010-05-22T15:07:00Z</time>
      </trkpt>
      <trkpt lat="45.03296" lon="5.49029">
        <ele>1449</ele>
        <time>2010-05-22T15:07:08Z</time>
      </trkpt>
      <trkpt lat="45.03292" lon="5.4903">
        <ele>1454</ele>
        <time>2010-05-22T15:07:17Z</time>
      </trkpt>
      <trkpt lat="45.0329" lon="5.4903">
        <ele>1454</ele>
        <time>2010-05-22T15:07:22Z</time>
      </trkpt>
      <trkpt lat="45.03289" lon="5.4903">
        <ele>1454</ele>
        <time>2010-05-22T15:07:29Z</time>
      </trkpt>
      <trkpt lat="45.03289" lon="5.49031">
        <ele>1454</ele>
        <time>2010-05-22T15:07:39Z</time>
      </trkpt>
      <trkpt lat="45.03289" lon="5.49033">
        <ele>1450</ele>
        <time>2010-05-22T15:07:46Z</time>
      </trkpt>
      <trkpt lat="45.0329" lon="5.49028">
        <ele>1443</ele>
        <time>2010-05-22T15:07:51Z</time>
      </trkpt>
      <trkpt lat="45.03298" lon="5.49029">
        <ele>1436</ele>
        <time>2010-05-22T15:07:59Z</time>
      </trkpt>
      <trkpt lat="45.03301" lon="5.49029">
        <ele>1436</ele>
        <time>2010-05-22T15:08:06Z</time>
      </trkpt>
      <trkpt lat="45.03301" lon="5.49028">
        <ele>1438</ele>
        <time>2010-05-22T15:08:12Z</time>
      </trkpt>
      <trkpt lat="45.03302" lon="5.49022">
        <ele>1436</ele>
        <time>2010-05-22T15:08:19Z</time>
      </trkpt>
      <trkpt lat="45.03304" lon="5.4902">
        <ele>1432</ele>
        <time>2010-05-22T15:08:25Z</time>
      </trkpt>
      <trkpt lat="45.03299" lon="5.49014">
        <ele>1424</ele>
        <time>2010-05-22T15:08:31Z</time>
      </trkpt>
      <trkpt lat="45.03295" lon="5.49011">
        <ele>1418</ele>
        <time>2010-05-22T15:08:36Z</time>
      </trkpt>
      <trkpt lat="45.03295" lon="5.49014">
        <ele>1425</ele>
        <time>2010-05-22T15:08:56Z</time>
      </trkpt>
      <trkpt lat="45.03294" lon="5.49014">
        <ele>1435</ele>
        <time>2010-05-22T15:09:06Z</time>
      </trkpt>
      <trkpt lat="45.0329" lon="5.49015">
        <ele>1436</ele>
        <time>2010-05-22T15:09:11Z</time>
      </trkpt>
      <trkpt lat="45.03288" lon="5.49016">
        <ele>1436</ele>
        <time>2010-05-22T15:09:18Z</time>
      </trkpt>
      <trkpt lat="45.03288" lon="5.49018">
        <ele>1434</ele>
        <time>2010-05-22T15:09:24Z</time>
      </trkpt>
      <trkpt lat="45.0329" lon="5.49022">
        <ele>1434</ele>
        <time>2010-05-22T15:09:30Z</time>
      </trkpt>
      <trkpt lat="45.03286" lon="5.49022">
        <ele>1442</ele>
        <time>2010-05-22T15:09:38Z</time>
      </trkpt>
      <trkpt lat="45.03278" lon="5.49019">
        <ele>1446</ele>
        <time>2010-05-22T15:09:44Z</time>
      </trkpt>
      <trkpt lat="45.03269" lon="5.49013">
        <ele>1447</ele>
        <time>2010-05-22T15:09:50Z</time>
      </trkpt>
      <trkpt lat="45.03274" lon="5.49013">
        <ele>1451</ele>
        <time>2010-05-22T15:09:57Z</time>
      </trkpt>
      <trkpt lat="45.03278" lon="5.49024">
        <ele>1459</ele>
        <time>2010-05-22T15:10:03Z</time>
      </trkpt>
      <trkpt lat="45.0328" lon="5.49034">
        <ele>1477</ele>
        <time>2010-05-22T15:10:08Z</time>
      </trkpt>
      <trkpt lat="45.03279" lon="5.49037">
        <ele>1491</ele>
        <time>2010-05-22T15:10:19Z</time>
      </trkpt>
      <trkpt lat="45.03276" lon="5.49034">
        <ele>1488</ele>
        <time>2010-05-22T15:10:25Z</time>
      </trkpt>
      <trkpt lat="45.03272" lon="5.49029">
        <ele>1477</ele>
        <time>2010-05-22T15:10:32Z</time>
      </trkpt>
      <trkpt lat="45.03271" lon="5.49027">
        <ele>1466</ele>
        <time>2010-05-22T15:10:44Z</time>
      </trkpt>
      <trkpt lat="45.03273" lon="5.4903">
        <ele>1464</ele>
        <time>2010-05-22T15:10:50Z</time>
      </trkpt>
      <trkpt lat="45.0328" lon="5.49036">
        <ele>1469</ele>
        <time>2010-05-22T15:11:00Z</time>
      </trkpt>
      <trkpt lat="45.03282" lon="5.49034">
        <ele>1471</ele>
        <time>2010-05-22T15:11:05Z</time>
      </trkpt>
      <trkpt lat="45.03284" lon="5.49032">
        <ele>1471</ele>
        <time>2010-05-22T15:11:11Z</time>
      </trkpt>
      <trkpt lat="45.03286" lon="5.49037">
        <ele>1471</ele>
        <time>2010-05-22T15:11:16Z</time>
      </trkpt>
      <trkpt lat="45.03289" lon="5.49041">
        <ele>1472</ele>
        <time>2010-05-22T15:11:22Z</time>
      </trkpt>
      <trkpt lat="45.03293" lon="5.4905">
        <ele>1477</ele>
        <time>2010-05-22T15:11:28Z</time>
      </trkpt>
      <trkpt lat="45.03301" lon="5.49059">
        <ele>1486</ele>
        <time>2010-05-22T15:11:33Z</time>
      </trkpt>
      <trkpt lat="45.03301" lon="5.49059">
        <ele>1503</ele>
        <time>2010-05-22T15:11:42Z</time>
      </trkpt>
      <trkpt lat="45.033" lon="5.49057">
        <ele>1508</ele>
        <time>2010-05-22T15:11:50Z</time>
      </trkpt>
      <trkpt lat="45.03294" lon="5.49052">
        <ele>1508</ele>
        <time>2010-05-22T15:11:55Z</time>
      </trkpt>
      <trkpt lat="45.03288" lon="5.49044">
        <ele>1504</ele>
        <time>2010-05-22T15:12:01Z</time>
      </trkpt>
      <trkpt lat="45.03268" lon="5.49027">
        <ele>1491</ele>
        <time>2010-05-22T15:12:06Z</time>
      </trkpt>
      <trkpt lat="45.0325" lon="5.49017">
        <ele>1476</ele>
        <time>2010-05-22T15:12:12Z</time>
      </trkpt>
      <trkpt lat="45.03225" lon="5.4902">
        <ele>1456</ele>
        <time>2010-05-22T15:12:17Z</time>
      </trkpt>
      <trkpt lat="45.03209" lon="5.49032">
        <ele>1447</ele>
        <time>2010-05-22T15:12:23Z</time>
      </trkpt>
      <trkpt lat="45.03191" lon="5.49043">
        <ele>1436</ele>
        <time>2010-05-22T15:12:28Z</time>
      </trkpt>
      <trkpt lat="45.0317" lon="5.49047">
        <ele>1431</ele>
        <time>2010-05-22T15:12:34Z</time>
      </trkpt>
      <trkpt lat="45.03129" lon="5.4905">
        <ele>1426</ele>
        <time>2010-05-22T15:12:39Z</time>
      </trkpt>
      <trkpt lat="45.031" lon="5.49064">
        <ele>1423</ele>
        <time>2010-05-22T15:12:46Z</time>
      </trkpt>
      <trkpt lat="45.03069" lon="5.49077">
        <ele>1423</ele>
        <time>2010-05-22T15:12:51Z</time>
      </trkpt>
      <trkpt lat="45.03036" lon="5.49063">
        <ele>1423</ele>
        <time>2010-05-22T15:12:56Z</time>
      </trkpt>
      <trkpt lat="45.03012" lon="5.49055">
        <ele>1423</ele>
        <time>2010-05-22T15:13:01Z</time>
      </trkpt>
      <trkpt lat="45.02992" lon="5.49056">
        <ele>1423</ele>
        <time>2010-05-22T15:13:07Z</time>
      </trkpt>
      <trkpt lat="45.02978" lon="5.4906">
        <ele>1425</ele>
        <time>2010-05-22T15:13:12Z</time>
      </trkpt>
      <trkpt lat="45.02958" lon="5.49074">
        <ele>1425</ele>
        <time>2010-05-22T15:13:17Z</time>
      </trkpt>
      <trkpt lat="45.02932" lon="5.49095">
        <ele>1427</ele>
        <time>2010-05-22T15:13:24Z</time>
      </trkpt>
      <trkpt lat="45.02876" lon="5.49099">
        <ele>1427</ele>
        <time>2010-05-22T15:13:29Z</time>
      </trkpt>
      <trkpt lat="45.02828" lon="5.49089">
        <ele>1423</ele>
        <time>2010-05-22T15:13:36Z</time>
      </trkpt>
      <trkpt lat="45.02787" lon="5.49068">
        <ele>1418</ele>
        <time>2010-05-22T15:13:43Z</time>
      </trkpt>
      <trkpt lat="45.02788" lon="5.4906">
        <ele>1418</ele>
        <time>2010-05-22T15:13:50Z</time>
      </trkpt>
      <trkpt lat="45.02768" lon="5.49049">
        <ele>1420</ele>
        <time>2010-05-22T15:13:57Z</time>
      </trkpt>
      <trkpt lat="45.02757" lon="5.49036">
        <ele>1425</ele>
        <time>2010-05-22T15:14:02Z</time>
      </trkpt>
      <trkpt lat="45.02748" lon="5.49032">
        <ele>1427</ele>
        <time>2010-05-22T15:14:07Z</time>
      </trkpt>
      <trkpt lat="45.02727" lon="5.49048">
        <ele>1427</ele>
        <time>2010-05-22T15:14:12Z</time>
      </trkpt>
      <trkpt lat="45.02689" lon="5.49066">
        <ele>1425</ele>
        <time>2010-05-22T15:14:19Z</time>
      </trkpt>
      <trkpt lat="45.02669" lon="5.49069">
        <ele>1420</ele>
        <time>2010-05-22T15:14:24Z</time>
      </trkpt>
      <trkpt lat="45.02644" lon="5.49071">
        <ele>1416</ele>
        <time>2010-05-22T15:14:30Z</time>
      </trkpt>
      <trkpt lat="45.02607" lon="5.49049">
        <ele>1412</ele>
        <time>2010-05-22T15:14:36Z</time>
      </trkpt>
      <trkpt lat="45.02595" lon="5.49031">
        <ele>1409</ele>
        <time>2010-05-22T15:14:41Z</time>
      </trkpt>
      <trkpt lat="45.02594" lon="5.49027">
        <ele>1409</ele>
        <time>2010-05-22T15:14:46Z</time>
      </trkpt>
      <trkpt lat="45.02591" lon="5.49023">
        <ele>1407</ele>
        <time>2010-05-22T15:15:00Z</time>
      </trkpt>
      <trkpt lat="45.02596" lon="5.49022">
        <ele>1407</ele>
        <time>2010-05-22T15:15:08Z</time>
      </trkpt>
      <trkpt lat="45.02597" lon="5.49024">
        <ele>1407</ele>
        <time>2010-05-22T15:15:15Z</time>
      </trkpt>
      <trkpt lat="45.02598" lon="5.49025">
        <ele>1407</ele>
        <time>2010-05-22T15:15:21Z</time>
      </trkpt>
      <trkpt lat="45.02601" lon="5.49026">
        <ele>1407</ele>
        <time>2010-05-22T15:15:31Z</time>
      </trkpt>
      <trkpt lat="45.02597" lon="5.49029">
        <ele>1407</ele>
        <time>2010-05-22T15:15:36Z</time>
      </trkpt>
      <trkpt lat="45.02579" lon="5.49027">
        <ele>1406</ele>
        <time>2010-05-22T15:15:42Z</time>
      </trkpt>
      <trkpt lat="45.02554" lon="5.49044">
        <ele>1405</ele>
        <time>2010-05-22T15:15:48Z</time>
      </trkpt>
      <trkpt lat="45.02526" lon="5.49072">
        <ele>1404</ele>
        <time>2010-05-22T15:15:53Z</time>
      </trkpt>
      <trkpt lat="45.02519" lon="5.49104">
        <ele>1404</ele>
        <time>2010-05-22T15:15:58Z</time>
      </trkpt>
      <trkpt lat="45.02507" lon="5.49119">
        <ele>1409</ele>
        <time>2010-05-22T15:16:03Z</time>
      </trkpt>
      <trkpt lat="45.02491" lon="5.49127">
        <ele>1413</ele>
        <time>2010-05-22T15:16:10Z</time>
      </trkpt>
      <trkpt lat="45.02481" lon="5.49132">
        <ele>1417</ele>
        <time>2010-05-22T15:16:16Z</time>
      </trkpt>
      <trkpt lat="45.0247" lon="5.4914">
        <ele>1422</ele>
        <time>2010-05-22T15:16:21Z</time>
      </trkpt>
      <trkpt lat="45.02457" lon="5.49147">
        <ele>1422</ele>
        <time>2010-05-22T15:16:27Z</time>
      </trkpt>
      <trkpt lat="45.02439" lon="5.4915">
        <ele>1422</ele>
        <time>2010-05-22T15:16:35Z</time>
      </trkpt>
      <trkpt lat="45.02419" lon="5.49149">
        <ele>1422</ele>
        <time>2010-05-22T15:16:40Z</time>
      </trkpt>
      <trkpt lat="45.02403" lon="5.49147">
        <ele>1422</ele>
        <time>2010-05-22T15:16:46Z</time>
      </trkpt>
      <trkpt lat="45.02384" lon="5.49147">
        <ele>1422</ele>
        <time>2010-05-22T15:16:51Z</time>
      </trkpt>
      <trkpt lat="45.02371" lon="5.49147">
        <ele>1422</ele>
        <time>2010-05-22T15:16:57Z</time>
      </trkpt>
      <trkpt lat="45.02362" lon="5.49145">
        <ele>1423</ele>
        <time>2010-05-22T15:17:03Z</time>
      </trkpt>
      <trkpt lat="45.02351" lon="5.49137">
        <ele>1424</ele>
        <time>2010-05-22T15:17:10Z</time>
      </trkpt>
      <trkpt lat="45.02336" lon="5.49126">
        <ele>1424</ele>
        <time>2010-05-22T15:17:15Z</time>
      </trkpt>
      <trkpt lat="45.02322" lon="5.49118">
        <ele>1424</ele>
        <time>2010-05-22T15:17:22Z</time>
      </trkpt>
      <trkpt lat="45.0232" lon="5.49114">
        <ele>1424</ele>
        <time>2010-05-22T15:17:28Z</time>
      </trkpt>
      <trkpt lat="45.02315" lon="5.49108">
        <ele>1424</ele>
        <time>2010-05-22T15:17:34Z</time>
      </trkpt>
      <trkpt lat="45.02305" lon="5.49092">
        <ele>1424</ele>
        <time>2010-05-22T15:17:41Z</time>
      </trkpt>
      <trkpt lat="45.02293" lon="5.49084">
        <ele>1426</ele>
        <time>2010-05-22T15:17:47Z</time>
      </trkpt>
      <trkpt lat="45.02288" lon="5.49072">
        <ele>1426</ele>
        <time>2010-05-22T15:17:53Z</time>
      </trkpt>
      <trkpt lat="45.02284" lon="5.49056">
        <ele>1423</ele>
        <time>2010-05-22T15:17:58Z</time>
      </trkpt>
      <trkpt lat="45.02286" lon="5.49044">
        <ele>1423</ele>
        <time>2010-05-22T15:18:05Z</time>
      </trkpt>
      <trkpt lat="45.02286" lon="5.49036">
        <ele>1423</ele>
        <time>2010-05-22T15:18:10Z</time>
      </trkpt>
      <trkpt lat="45.02286" lon="5.49023">
        <ele>1423</ele>
        <time>2010-05-22T15:18:15Z</time>
      </trkpt>
      <trkpt lat="45.02284" lon="5.4901">
        <ele>1423</ele>
        <time>2010-05-22T15:18:22Z</time>
      </trkpt>
      <trkpt lat="45.02281" lon="5.48997">
        <ele>1424</ele>
        <time>2010-05-22T15:18:27Z</time>
      </trkpt>
      <trkpt lat="45.02278" lon="5.48987">
        <ele>1425</ele>
        <time>2010-05-22T15:18:32Z</time>
      </trkpt>
      <trkpt lat="45.02279" lon="5.4897">
        <ele>1425</ele>
        <time>2010-05-22T15:18:38Z</time>
      </trkpt>
      <trkpt lat="45.02275" lon="5.48954">
        <ele>1425</ele>
        <time>2010-05-22T15:18:43Z</time>
      </trkpt>
      <trkpt lat="45.02274" lon="5.48948">
        <ele>1428</ele>
        <time>2010-05-22T15:18:49Z</time>
      </trkpt>
      <trkpt lat="45.02266" lon="5.48927">
        <ele>1431</ele>
        <time>2010-05-22T15:18:56Z</time>
      </trkpt>
      <trkpt lat="45.02262" lon="5.48915">
        <ele>1435</ele>
        <time>2010-05-22T15:19:02Z</time>
      </trkpt>
      <trkpt lat="45.02254" lon="5.48907">
        <ele>1438</ele>
        <time>2010-05-22T15:19:08Z</time>
      </trkpt>
      <trkpt lat="45.02246" lon="5.48889">
        <ele>1441</ele>
        <time>2010-05-22T15:19:13Z</time>
      </trkpt>
      <trkpt lat="45.02244" lon="5.48875">
        <ele>1442</ele>
        <time>2010-05-22T15:19:18Z</time>
      </trkpt>
      <trkpt lat="45.0224" lon="5.48866">
        <ele>1443</ele>
        <time>2010-05-22T15:19:24Z</time>
      </trkpt>
      <trkpt lat="45.02242" lon="5.48862">
        <ele>1446</ele>
        <time>2010-05-22T15:19:30Z</time>
      </trkpt>
      <trkpt lat="45.02241" lon="5.48854">
        <ele>1449</ele>
        <time>2010-05-22T15:19:35Z</time>
      </trkpt>
      <trkpt lat="45.02237" lon="5.48847">
        <ele>1453</ele>
        <time>2010-05-22T15:19:40Z</time>
      </trkpt>
      <trkpt lat="45.02234" lon="5.48841">
        <ele>1456</ele>
        <time>2010-05-22T15:19:47Z</time>
      </trkpt>
      <trkpt lat="45.0223" lon="5.48841">
        <ele>1462</ele>
        <time>2010-05-22T15:19:54Z</time>
      </trkpt>
      <trkpt lat="45.02222" lon="5.48842">
        <ele>1466</ele>
        <time>2010-05-22T15:19:59Z</time>
      </trkpt>
      <trkpt lat="45.02216" lon="5.48847">
        <ele>1470</ele>
        <time>2010-05-22T15:20:05Z</time>
      </trkpt>
      <trkpt lat="45.02203" lon="5.48847">
        <ele>1472</ele>
        <time>2010-05-22T15:20:10Z</time>
      </trkpt>
      <trkpt lat="45.02191" lon="5.48846">
        <ele>1472</ele>
        <time>2010-05-22T15:20:15Z</time>
      </trkpt>
      <trkpt lat="45.02176" lon="5.48843">
        <ele>1470</ele>
        <time>2010-05-22T15:20:20Z</time>
      </trkpt>
      <trkpt lat="45.02165" lon="5.48841">
        <ele>1466</ele>
        <time>2010-05-22T15:20:26Z</time>
      </trkpt>
      <trkpt lat="45.02151" lon="5.48839">
        <ele>1461</ele>
        <time>2010-05-22T15:20:31Z</time>
      </trkpt>
      <trkpt lat="45.02133" lon="5.48828">
        <ele>1457</ele>
        <time>2010-05-22T15:20:36Z</time>
      </trkpt>
      <trkpt lat="45.02123" lon="5.48818">
        <ele>1454</ele>
        <time>2010-05-22T15:20:41Z</time>
      </trkpt>
      <trkpt lat="45.02114" lon="5.48803">
        <ele>1454</ele>
        <time>2010-05-22T15:20:47Z</time>
      </trkpt>
      <trkpt lat="45.02102" lon="5.48794">
        <ele>1454</ele>
        <time>2010-05-22T15:20:52Z</time>
      </trkpt>
      <trkpt lat="45.02088" lon="5.48803">
        <ele>1453</ele>
        <time>2010-05-22T15:20:57Z</time>
      </trkpt>
      <trkpt lat="45.02078" lon="5.48826">
        <ele>1451</ele>
        <time>2010-05-22T15:21:03Z</time>
      </trkpt>
      <trkpt lat="45.02066" lon="5.48844">
        <ele>1451</ele>
        <time>2010-05-22T15:21:10Z</time>
      </trkpt>
      <trkpt lat="45.02047" lon="5.48858">
        <ele>1451</ele>
        <time>2010-05-22T15:21:15Z</time>
      </trkpt>
      <trkpt lat="45.02024" lon="5.4886">
        <ele>1451</ele>
        <time>2010-05-22T15:21:20Z</time>
      </trkpt>
      <trkpt lat="45.01975" lon="5.48855">
        <ele>1449</ele>
        <time>2010-05-22T15:21:26Z</time>
      </trkpt>
      <trkpt lat="45.01931" lon="5.48868">
        <ele>1441</ele>
        <time>2010-05-22T15:21:34Z</time>
      </trkpt>
      <trkpt lat="45.01897" lon="5.4887">
        <ele>1435</ele>
        <time>2010-05-22T15:21:39Z</time>
      </trkpt>
      <trkpt lat="45.01849" lon="5.48889">
        <ele>1431</ele>
        <time>2010-05-22T15:21:45Z</time>
      </trkpt>
      <trkpt lat="45.01804" lon="5.48903">
        <ele>1425</ele>
        <time>2010-05-22T15:21:50Z</time>
      </trkpt>
      <trkpt lat="45.01764" lon="5.48917">
        <ele>1421</ele>
        <time>2010-05-22T15:21:56Z</time>
      </trkpt>
      <trkpt lat="45.01702" lon="5.48884">
        <ele>1417</ele>
        <time>2010-05-22T15:22:04Z</time>
      </trkpt>
      <trkpt lat="45.01669" lon="5.48861">
        <ele>1413</ele>
        <time>2010-05-22T15:22:09Z</time>
      </trkpt>
      <trkpt lat="45.01651" lon="5.48849">
        <ele>1412</ele>
        <time>2010-05-22T15:22:15Z</time>
      </trkpt>
      <trkpt lat="45.01642" lon="5.48844">
        <ele>1412</ele>
        <time>2010-05-22T15:22:20Z</time>
      </trkpt>
      <trkpt lat="45.0163" lon="5.48836">
        <ele>1412</ele>
        <time>2010-05-22T15:22:26Z</time>
      </trkpt>
      <trkpt lat="45.01609" lon="5.48824">
        <ele>1415</ele>
        <time>2010-05-22T15:22:34Z</time>
      </trkpt>
      <trkpt lat="45.01582" lon="5.4881">
        <ele>1415</ele>
        <time>2010-05-22T15:22:39Z</time>
      </trkpt>
      <trkpt lat="45.01562" lon="5.48792">
        <ele>1417</ele>
        <time>2010-05-22T15:22:45Z</time>
      </trkpt>
      <trkpt lat="45.01544" lon="5.48788">
        <ele>1419</ele>
        <time>2010-05-22T15:22:51Z</time>
      </trkpt>
      <trkpt lat="45.01526" lon="5.48789">
        <ele>1420</ele>
        <time>2010-05-22T15:22:57Z</time>
      </trkpt>
      <trkpt lat="45.01508" lon="5.48782">
        <ele>1422</ele>
        <time>2010-05-22T15:23:04Z</time>
      </trkpt>
      <trkpt lat="45.01493" lon="5.48777">
        <ele>1426</ele>
        <time>2010-05-22T15:23:09Z</time>
      </trkpt>
      <trkpt lat="45.01482" lon="5.48773">
        <ele>1426</ele>
        <time>2010-05-22T15:23:16Z</time>
      </trkpt>
      <trkpt lat="45.0147" lon="5.48773">
        <ele>1428</ele>
        <time>2010-05-22T15:23:21Z</time>
      </trkpt>
      <trkpt lat="45.01456" lon="5.4877">
        <ele>1428</ele>
        <time>2010-05-22T15:23:26Z</time>
      </trkpt>
      <trkpt lat="45.01443" lon="5.48768">
        <ele>1430</ele>
        <time>2010-05-22T15:23:32Z</time>
      </trkpt>
      <trkpt lat="45.01428" lon="5.48761">
        <ele>1434</ele>
        <time>2010-05-22T15:23:37Z</time>
      </trkpt>
      <trkpt lat="45.0141" lon="5.48755">
        <ele>1437</ele>
        <time>2010-05-22T15:23:43Z</time>
      </trkpt>
      <trkpt lat="45.01398" lon="5.48752">
        <ele>1437</ele>
        <time>2010-05-22T15:23:49Z</time>
      </trkpt>
      <trkpt lat="45.01392" lon="5.48754">
        <ele>1434</ele>
        <time>2010-05-22T15:23:57Z</time>
      </trkpt>
      <trkpt lat="45.01396" lon="5.4876">
        <ele>1435</ele>
        <time>2010-05-22T15:24:02Z</time>
      </trkpt>
      <trkpt lat="45.01395" lon="5.4876">
        <ele>1439</ele>
        <time>2010-05-22T15:24:08Z</time>
      </trkpt>
      <trkpt lat="45.01392" lon="5.48758">
        <ele>1441</ele>
        <time>2010-05-22T15:24:22Z</time>
      </trkpt>
      <trkpt lat="45.01393" lon="5.48759">
        <ele>1445</ele>
        <time>2010-05-22T15:24:32Z</time>
      </trkpt>
      <trkpt lat="45.01396" lon="5.48755">
        <ele>1449</ele>
        <time>2010-05-22T15:24:40Z</time>
      </trkpt>
      <trkpt lat="45.01392" lon="5.4875">
        <ele>1451</ele>
        <time>2010-05-22T15:24:46Z</time>
      </trkpt>
      <trkpt lat="45.01388" lon="5.48749">
        <ele>1448</ele>
        <time>2010-05-22T15:24:51Z</time>
      </trkpt>
      <trkpt lat="45.01385" lon="5.48747">
        <ele>1441</ele>
        <time>2010-05-22T15:24:59Z</time>
      </trkpt>
      <trkpt lat="45.01387" lon="5.48746">
        <ele>1437</ele>
        <time>2010-05-22T15:25:07Z</time>
      </trkpt>
      <trkpt lat="45.01389" lon="5.48743">
        <ele>1437</ele>
        <time>2010-05-22T15:25:12Z</time>
      </trkpt>
      <trkpt lat="45.01392" lon="5.48742">
        <ele>1437</ele>
        <time>2010-05-22T15:25:19Z</time>
      </trkpt>
      <trkpt lat="45.01396" lon="5.48748">
        <ele>1436</ele>
        <time>2010-05-22T15:25:24Z</time>
      </trkpt>
      <trkpt lat="45.01398" lon="5.48751">
        <ele>1432</ele>
        <time>2010-05-22T15:25:30Z</time>
      </trkpt>
      <trkpt lat="45.01399" lon="5.48753">
        <ele>1427</ele>
        <time>2010-05-22T15:25:44Z</time>
      </trkpt>
      <trkpt lat="45.01396" lon="5.48753">
        <ele>1427</ele>
        <time>2010-05-22T15:25:50Z</time>
      </trkpt>
      <trkpt lat="45.01393" lon="5.48759">
        <ele>1427</ele>
        <time>2010-05-22T15:25:55Z</time>
      </trkpt>
      <trkpt lat="45.0139" lon="5.48758">
        <ele>1431</ele>
        <time>2010-05-22T15:26:04Z</time>
      </trkpt>
      <trkpt lat="45.01384" lon="5.48753">
        <ele>1433</ele>
        <time>2010-05-22T15:26:10Z</time>
      </trkpt>
      <trkpt lat="45.01379" lon="5.4875">
        <ele>1436</ele>
        <time>2010-05-22T15:26:17Z</time>
      </trkpt>
      <trkpt lat="45.01379" lon="5.48754">
        <ele>1436</ele>
        <time>2010-05-22T15:26:26Z</time>
      </trkpt>
      <trkpt lat="45.01382" lon="5.48754">
        <ele>1436</ele>
        <time>2010-05-22T15:26:37Z</time>
      </trkpt>
      <trkpt lat="45.01383" lon="5.48751">
        <ele>1436</ele>
        <time>2010-05-22T15:26:42Z</time>
      </trkpt>
      <trkpt lat="45.01384" lon="5.48752">
        <ele>1436</ele>
        <time>2010-05-22T15:26:52Z</time>
      </trkpt>
      <trkpt lat="45.01386" lon="5.48751">
        <ele>1436</ele>
        <time>2010-05-22T15:27:02Z</time>
      </trkpt>
      <trkpt lat="45.01386" lon="5.48747">
        <ele>1436</ele>
        <time>2010-05-22T15:27:07Z</time>
      </trkpt>
      <trkpt lat="45.01387" lon="5.48751">
        <ele>1436</ele>
        <time>2010-05-22T15:27:13Z</time>
      </trkpt>
      <trkpt lat="45.01385" lon="5.48754">
        <ele>1434</ele>
        <time>2010-05-22T15:27:20Z</time>
      </trkpt>
      <trkpt lat="45.01384" lon="5.48756">
        <ele>1434</ele>
        <time>2010-05-22T15:27:26Z</time>
      </trkpt>
      <trkpt lat="45.01383" lon="5.48756">
        <ele>1434</ele>
        <time>2010-05-22T15:27:34Z</time>
      </trkpt>
      <trkpt lat="45.01383" lon="5.48757">
        <ele>1420</ele>
        <time>2010-05-22T15:28:12Z</time>
      </trkpt>
      <trkpt lat="45.01377" lon="5.4876">
        <ele>1420</ele>
        <time>2010-05-22T15:28:19Z</time>
      </trkpt>
      <trkpt lat="45.01353" lon="5.48776">
        <ele>1420</ele>
        <time>2010-05-22T15:28:26Z</time>
      </trkpt>
      <trkpt lat="45.01329" lon="5.48801">
        <ele>1420</ele>
        <time>2010-05-22T15:28:32Z</time>
      </trkpt>
      <trkpt lat="45.01298" lon="5.4884">
        <ele>1420</ele>
        <time>2010-05-22T15:28:38Z</time>
      </trkpt>
      <trkpt lat="45.01261" lon="5.48868">
        <ele>1420</ele>
        <time>2010-05-22T15:28:43Z</time>
      </trkpt>
      <trkpt lat="45.01208" lon="5.48874">
        <ele>1420</ele>
        <time>2010-05-22T15:28:50Z</time>
      </trkpt>
      <trkpt lat="45.01179" lon="5.48858">
        <ele>1420</ele>
        <time>2010-05-22T15:28:56Z</time>
      </trkpt>
      <trkpt lat="45.01147" lon="5.48813">
        <ele>1416</ele>
        <time>2010-05-22T15:29:03Z</time>
      </trkpt>
      <trkpt lat="45.01105" lon="5.48803">
        <ele>1412</ele>
        <time>2010-05-22T15:29:09Z</time>
      </trkpt>
      <trkpt lat="45.01061" lon="5.48827">
        <ele>1411</ele>
        <time>2010-05-22T15:29:14Z</time>
      </trkpt>
      <trkpt lat="45.01026" lon="5.48838">
        <ele>1409</ele>
        <time>2010-05-22T15:29:19Z</time>
      </trkpt>
      <trkpt lat="45.01016" lon="5.4885">
        <ele>1406</ele>
        <time>2010-05-22T15:29:25Z</time>
      </trkpt>
      <trkpt lat="45.01012" lon="5.48862">
        <ele>1404</ele>
        <time>2010-05-22T15:29:30Z</time>
      </trkpt>
      <trkpt lat="45.01014" lon="5.48881">
        <ele>1403</ele>
        <time>2010-05-22T15:29:37Z</time>
      </trkpt>
      <trkpt lat="45.01016" lon="5.48896">
        <ele>1407</ele>
        <time>2010-05-22T15:29:42Z</time>
      </trkpt>
      <trkpt lat="45.01021" lon="5.48919">
        <ele>1408</ele>
        <time>2010-05-22T15:29:47Z</time>
      </trkpt>
      <trkpt lat="45.01021" lon="5.48941">
        <ele>1408</ele>
        <time>2010-05-22T15:29:52Z</time>
      </trkpt>
      <trkpt lat="45.0102" lon="5.48956">
        <ele>1408</ele>
        <time>2010-05-22T15:29:58Z</time>
      </trkpt>
      <trkpt lat="45.0102" lon="5.4898">
        <ele>1408</ele>
        <time>2010-05-22T15:30:04Z</time>
      </trkpt>
      <trkpt lat="45.01031" lon="5.4899">
        <ele>1409</ele>
        <time>2010-05-22T15:30:09Z</time>
      </trkpt>
      <trkpt lat="45.01045" lon="5.48991">
        <ele>1411</ele>
        <time>2010-05-22T15:30:15Z</time>
      </trkpt>
      <trkpt lat="45.01058" lon="5.48992">
        <ele>1414</ele>
        <time>2010-05-22T15:30:21Z</time>
      </trkpt>
      <trkpt lat="45.01068" lon="5.48997">
        <ele>1417</ele>
        <time>2010-05-22T15:30:27Z</time>
      </trkpt>
      <trkpt lat="45.01074" lon="5.49013">
        <ele>1418</ele>
        <time>2010-05-22T15:30:32Z</time>
      </trkpt>
      <trkpt lat="45.0108" lon="5.49035">
        <ele>1420</ele>
        <time>2010-05-22T15:30:38Z</time>
      </trkpt>
      <trkpt lat="45.01088" lon="5.49063">
        <ele>1421</ele>
        <time>2010-05-22T15:30:44Z</time>
      </trkpt>
      <trkpt lat="45.01098" lon="5.4909">
        <ele>1421</ele>
        <time>2010-05-22T15:30:50Z</time>
      </trkpt>
      <trkpt lat="45.01096" lon="5.49121">
        <ele>1421</ele>
        <time>2010-05-22T15:30:55Z</time>
      </trkpt>
      <trkpt lat="45.0107" lon="5.49145">
        <ele>1419</ele>
        <time>2010-05-22T15:31:00Z</time>
      </trkpt>
      <trkpt lat="45.01035" lon="5.49208">
        <ele>1413</ele>
        <time>2010-05-22T15:31:06Z</time>
      </trkpt>
      <trkpt lat="45.01006" lon="5.49274">
        <ele>1406</ele>
        <time>2010-05-22T15:31:12Z</time>
      </trkpt>
      <trkpt lat="45.00973" lon="5.49294">
        <ele>1398</ele>
        <time>2010-05-22T15:31:17Z</time>
      </trkpt>
      <trkpt lat="45.00923" lon="5.49302">
        <ele>1392</ele>
        <time>2010-05-22T15:31:23Z</time>
      </trkpt>
      <trkpt lat="45.00877" lon="5.49336">
        <ele>1388</ele>
        <time>2010-05-22T15:31:31Z</time>
      </trkpt>
      <trkpt lat="45.00827" lon="5.49412">
        <ele>1379</ele>
        <time>2010-05-22T15:31:38Z</time>
      </trkpt>
      <trkpt lat="45.00797" lon="5.49464">
        <ele>1374</ele>
        <time>2010-05-22T15:31:43Z</time>
      </trkpt>
      <trkpt lat="45.00772" lon="5.49504">
        <ele>1373</ele>
        <time>2010-05-22T15:31:49Z</time>
      </trkpt>
      <trkpt lat="45.00744" lon="5.49538">
        <ele>1368</ele>
        <time>2010-05-22T15:31:55Z</time>
      </trkpt>
      <trkpt lat="45.00763" lon="5.49547">
        <ele>1367</ele>
        <time>2010-05-22T15:32:01Z</time>
      </trkpt>
      <trkpt lat="45.00799" lon="5.49571">
        <ele>1367</ele>
        <time>2010-05-22T15:32:06Z</time>
      </trkpt>
      <trkpt lat="45.00833" lon="5.49642">
        <ele>1367</ele>
        <time>2010-05-22T15:32:12Z</time>
      </trkpt>
      <trkpt lat="45.0088" lon="5.49672">
        <ele>1365</ele>
        <time>2010-05-22T15:32:18Z</time>
      </trkpt>
      <trkpt lat="45.00916" lon="5.49686">
        <ele>1361</ele>
        <time>2010-05-22T15:32:23Z</time>
      </trkpt>
      <trkpt lat="45.00917" lon="5.49708">
        <ele>1358</ele>
        <time>2010-05-22T15:32:29Z</time>
      </trkpt>
      <trkpt lat="45.00899" lon="5.4975">
        <ele>1353</ele>
        <time>2010-05-22T15:32:35Z</time>
      </trkpt>
      <trkpt lat="45.00887" lon="5.49777">
        <ele>1346</ele>
        <time>2010-05-22T15:32:41Z</time>
      </trkpt>
      <trkpt lat="45.00884" lon="5.49801">
        <ele>1343</ele>
        <time>2010-05-22T15:32:46Z</time>
      </trkpt>
      <trkpt lat="45.00908" lon="5.49818">
        <ele>1341</ele>
        <time>2010-05-22T15:32:52Z</time>
      </trkpt>
      <trkpt lat="45.00929" lon="5.49873">
        <ele>1338</ele>
        <time>2010-05-22T15:33:00Z</time>
      </trkpt>
      <trkpt lat="45.00935" lon="5.49942">
        <ele>1333</ele>
        <time>2010-05-22T15:33:06Z</time>
      </trkpt>
      <trkpt lat="45.00931" lon="5.50002">
        <ele>1329</ele>
        <time>2010-05-22T15:33:11Z</time>
      </trkpt>
      <trkpt lat="45.00911" lon="5.50083">
        <ele>1322</ele>
        <time>2010-05-22T15:33:17Z</time>
      </trkpt>
      <trkpt lat="45.00886" lon="5.50142">
        <ele>1314</ele>
        <time>2010-05-22T15:33:22Z</time>
      </trkpt>
      <trkpt lat="45.00861" lon="5.50181">
        <ele>1309</ele>
        <time>2010-05-22T15:33:27Z</time>
      </trkpt>
      <trkpt lat="45.00855" lon="5.50239">
        <ele>1304</ele>
        <time>2010-05-22T15:33:34Z</time>
      </trkpt>
      <trkpt lat="45.00882" lon="5.50308">
        <ele>1294</ele>
        <time>2010-05-22T15:33:40Z</time>
      </trkpt>
      <trkpt lat="45.00916" lon="5.50338">
        <ele>1290</ele>
        <time>2010-05-22T15:33:45Z</time>
      </trkpt>
      <trkpt lat="45.00962" lon="5.5035">
        <ele>1289</ele>
        <time>2010-05-22T15:33:52Z</time>
      </trkpt>
      <trkpt lat="45.00998" lon="5.5039">
        <ele>1289</ele>
        <time>2010-05-22T15:33:57Z</time>
      </trkpt>
      <trkpt lat="45.01026" lon="5.50397">
        <ele>1285</ele>
        <time>2010-05-22T15:34:02Z</time>
      </trkpt>
      <trkpt lat="45.01061" lon="5.50407">
        <ele>1283</ele>
        <time>2010-05-22T15:34:09Z</time>
      </trkpt>
      <trkpt lat="45.01102" lon="5.50419">
        <ele>1283</ele>
        <time>2010-05-22T15:34:14Z</time>
      </trkpt>
      <trkpt lat="45.01144" lon="5.50435">
        <ele>1283</ele>
        <time>2010-05-22T15:34:20Z</time>
      </trkpt>
      <trkpt lat="45.012" lon="5.5047">
        <ele>1278</ele>
        <time>2010-05-22T15:34:26Z</time>
      </trkpt>
      <trkpt lat="45.0125" lon="5.50505">
        <ele>1272</ele>
        <time>2010-05-22T15:34:32Z</time>
      </trkpt>
      <trkpt lat="45.01299" lon="5.50532">
        <ele>1264</ele>
        <time>2010-05-22T15:34:38Z</time>
      </trkpt>
      <trkpt lat="45.01339" lon="5.5055">
        <ele>1256</ele>
        <time>2010-05-22T15:34:44Z</time>
      </trkpt>
      <trkpt lat="45.01388" lon="5.50584">
        <ele>1246</ele>
        <time>2010-05-22T15:34:50Z</time>
      </trkpt>
      <trkpt lat="45.0143" lon="5.50628">
        <ele>1240</ele>
        <time>2010-05-22T15:34:56Z</time>
      </trkpt>
      <trkpt lat="45.01471" lon="5.50682">
        <ele>1235</ele>
        <time>2010-05-22T15:35:02Z</time>
      </trkpt>
      <trkpt lat="45.01515" lon="5.5073">
        <ele>1231</ele>
        <time>2010-05-22T15:35:08Z</time>
      </trkpt>
      <trkpt lat="45.01546" lon="5.50781">
        <ele>1226</ele>
        <time>2010-05-22T15:35:14Z</time>
      </trkpt>
      <trkpt lat="45.01597" lon="5.50811">
        <ele>1222</ele>
        <time>2010-05-22T15:35:21Z</time>
      </trkpt>
      <trkpt lat="45.0164" lon="5.50845">
        <ele>1217</ele>
        <time>2010-05-22T15:35:26Z</time>
      </trkpt>
      <trkpt lat="45.01674" lon="5.50874">
        <ele>1212</ele>
        <time>2010-05-22T15:35:33Z</time>
      </trkpt>
      <trkpt lat="45.01679" lon="5.50879">
        <ele>1212</ele>
        <time>2010-05-22T15:35:41Z</time>
      </trkpt>
      <trkpt lat="45.01677" lon="5.50877">
        <ele>1216</ele>
        <time>2010-05-22T15:35:50Z</time>
      </trkpt>
      <trkpt lat="45.01674" lon="5.50876">
        <ele>1218</ele>
        <time>2010-05-22T15:35:57Z</time>
      </trkpt>
      <trkpt lat="45.01673" lon="5.50875">
        <ele>1218</ele>
        <time>2010-05-22T15:36:07Z</time>
      </trkpt>
      <trkpt lat="45.01673" lon="5.50877">
        <ele>1218</ele>
        <time>2010-05-22T15:36:18Z</time>
      </trkpt>
      <trkpt lat="45.01672" lon="5.50876">
        <ele>1217</ele>
        <time>2010-05-22T15:36:26Z</time>
      </trkpt>
      <trkpt lat="45.01671" lon="5.50872">
        <ele>1217</ele>
        <time>2010-05-22T15:36:34Z</time>
      </trkpt>
      <trkpt lat="45.01669" lon="5.50871">
        <ele>1217</ele>
        <time>2010-05-22T15:36:58Z</time>
      </trkpt>
      <trkpt lat="45.01668" lon="5.50872">
        <ele>1217</ele>
        <time>2010-05-22T15:37:08Z</time>
      </trkpt>
      <trkpt lat="45.01667" lon="5.50871">
        <ele>1217</ele>
        <time>2010-05-22T15:37:19Z</time>
      </trkpt>
      <trkpt lat="45.01666" lon="5.50867">
        <ele>1217</ele>
        <time>2010-05-22T15:37:32Z</time>
      </trkpt>
      <trkpt lat="45.01667" lon="5.50868">
        <ele>1219</ele>
        <time>2010-05-22T15:37:44Z</time>
      </trkpt>
      <trkpt lat="45.01668" lon="5.50872">
        <ele>1218</ele>
        <time>2010-05-22T15:37:49Z</time>
      </trkpt>
      <trkpt lat="45.01669" lon="5.50873">
        <ele>1213</ele>
        <time>2010-05-22T15:37:58Z</time>
      </trkpt>
      <trkpt lat="45.01673" lon="5.50876">
        <ele>1212</ele>
        <time>2010-05-22T15:38:05Z</time>
      </trkpt>
      <trkpt lat="45.01674" lon="5.50881">
        <ele>1212</ele>
        <time>2010-05-22T15:38:14Z</time>
      </trkpt>
      <trkpt lat="45.01674" lon="5.5088">
        <ele>1212</ele>
        <time>2010-05-22T15:38:25Z</time>
      </trkpt>
      <trkpt lat="45.01676" lon="5.50879">
        <ele>1212</ele>
        <time>2010-05-22T15:38:31Z</time>
      </trkpt>
      <trkpt lat="45.01677" lon="5.50877">
        <ele>1212</ele>
        <time>2010-05-22T15:38:37Z</time>
      </trkpt>
      <trkpt lat="45.01678" lon="5.50876">
        <ele>1212</ele>
        <time>2010-05-22T15:38:42Z</time>
      </trkpt>
      <trkpt lat="45.0168" lon="5.50875">
        <ele>1212</ele>
        <time>2010-05-22T15:38:47Z</time>
      </trkpt>
      <trkpt lat="45.01679" lon="5.50875">
        <ele>1212</ele>
        <time>2010-05-22T15:39:00Z</time>
      </trkpt>
      <trkpt lat="45.01676" lon="5.50878">
        <ele>1212</ele>
        <time>2010-05-22T15:39:07Z</time>
      </trkpt>
      <trkpt lat="45.01673" lon="5.5088">
        <ele>1212</ele>
        <time>2010-05-22T15:39:16Z</time>
      </trkpt>
      <trkpt lat="45.01672" lon="5.50882">
        <ele>1214</ele>
        <time>2010-05-22T15:39:26Z</time>
      </trkpt>
      <trkpt lat="45.01672" lon="5.50883">
        <ele>1214</ele>
        <time>2010-05-22T15:39:45Z</time>
      </trkpt>
      <trkpt lat="45.01673" lon="5.50884">
        <ele>1214</ele>
        <time>2010-05-22T15:40:12Z</time>
      </trkpt>
      <trkpt lat="45.01674" lon="5.50884">
        <ele>1214</ele>
        <time>2010-05-22T15:40:29Z</time>
      </trkpt>
      <trkpt lat="45.01676" lon="5.50885">
        <ele>1216</ele>
        <time>2010-05-22T15:40:48Z</time>
      </trkpt>
      <trkpt lat="45.01675" lon="5.50884">
        <ele>1217</ele>
        <time>2010-05-22T15:41:09Z</time>
      </trkpt>
      <trkpt lat="45.01674" lon="5.50882">
        <ele>1217</ele>
        <time>2010-05-22T15:41:26Z</time>
      </trkpt>
      <trkpt lat="45.01675" lon="5.50881">
        <ele>1217</ele>
        <time>2010-05-22T15:41:46Z</time>
      </trkpt>
      <trkpt lat="45.01675" lon="5.50879">
        <ele>1217</ele>
        <time>2010-05-22T15:42:12Z</time>
      </trkpt>
      <trkpt lat="45.01675" lon="5.50878">
        <ele>1217</ele>
        <time>2010-05-22T15:42:25Z</time>
      </trkpt>
      <trkpt lat="45.01676" lon="5.50882">
        <ele>1217</ele>
        <time>2010-05-22T15:42:31Z</time>
      </trkpt>
      <trkpt lat="45.01678" lon="5.50886">
        <ele>1223</ele>
        <time>2010-05-22T15:42:40Z</time>
      </trkpt>
      <trkpt lat="45.01679" lon="5.50887">
        <ele>1226</ele>
        <time>2010-05-22T15:42:51Z</time>
      </trkpt>
      <trkpt lat="45.0168" lon="5.50886">
        <ele>1227</ele>
        <time>2010-05-22T15:42:56Z</time>
      </trkpt>
      <trkpt lat="45.01682" lon="5.50884">
        <ele>1229</ele>
        <time>2010-05-22T15:43:03Z</time>
      </trkpt>
      <trkpt lat="45.01683" lon="5.50883">
        <ele>1232</ele>
        <time>2010-05-22T15:43:10Z</time>
      </trkpt>
      <trkpt lat="45.01683" lon="5.50882">
        <ele>1234</ele>
        <time>2010-05-22T15:43:25Z</time>
      </trkpt>
      <trkpt lat="45.01682" lon="5.50881">
        <ele>1234</ele>
        <time>2010-05-22T15:43:40Z</time>
      </trkpt>
      <trkpt lat="45.0168" lon="5.50881">
        <ele>1234</ele>
        <time>2010-05-22T15:43:46Z</time>
      </trkpt>
      <trkpt lat="45.01679" lon="5.50881">
        <ele>1234</ele>
        <time>2010-05-22T15:43:57Z</time>
      </trkpt>
      <trkpt lat="45.01678" lon="5.50881">
        <ele>1234</ele>
        <time>2010-05-22T15:44:05Z</time>
      </trkpt>
      <trkpt lat="45.01677" lon="5.50881">
        <ele>1234</ele>
        <time>2010-05-22T15:44:15Z</time>
      </trkpt>
      <trkpt lat="45.01676" lon="5.50881">
        <ele>1233</ele>
        <time>2010-05-22T15:44:29Z</time>
      </trkpt>
      <trkpt lat="45.01678" lon="5.50879">
        <ele>1233</ele>
        <time>2010-05-22T15:44:37Z</time>
      </trkpt>
      <trkpt lat="45.01681" lon="5.50877">
        <ele>1233</ele>
        <time>2010-05-22T15:44:44Z</time>
      </trkpt>
      <trkpt lat="45.01678" lon="5.50877">
        <ele>1233</ele>
        <time>2010-05-22T15:44:50Z</time>
      </trkpt>
      <trkpt lat="45.01675" lon="5.50878">
        <ele>1229</ele>
        <time>2010-05-22T15:44:59Z</time>
      </trkpt>
      <trkpt lat="45.01673" lon="5.5088">
        <ele>1227</ele>
        <time>2010-05-22T15:45:04Z</time>
      </trkpt>
      <trkpt lat="45.01672" lon="5.50878">
        <ele>1225</ele>
        <time>2010-05-22T15:45:10Z</time>
      </trkpt>
      <trkpt lat="45.01671" lon="5.50878">
        <ele>1224</ele>
        <time>2010-05-22T15:45:19Z</time>
      </trkpt>
      <trkpt lat="45.01667" lon="5.50879">
        <ele>1221</ele>
        <time>2010-05-22T15:45:24Z</time>
      </trkpt>
      <trkpt lat="45.01671" lon="5.50876">
        <ele>1220</ele>
        <time>2010-05-22T15:45:31Z</time>
      </trkpt>
      <trkpt lat="45.01675" lon="5.50874">
        <ele>1220</ele>
        <time>2010-05-22T15:45:36Z</time>
      </trkpt>
      <trkpt lat="45.01678" lon="5.50875">
        <ele>1222</ele>
        <time>2010-05-22T15:45:51Z</time>
      </trkpt>
      <trkpt lat="45.01679" lon="5.50876">
        <ele>1223</ele>
        <time>2010-05-22T15:45:56Z</time>
      </trkpt>
      <trkpt lat="45.0169" lon="5.50881">
        <ele>1223</ele>
        <time>2010-05-22T15:46:01Z</time>
      </trkpt>
      <trkpt lat="45.01709" lon="5.50889">
        <ele>1219</ele>
        <time>2010-05-22T15:46:07Z</time>
      </trkpt>
      <trkpt lat="45.01728" lon="5.50907">
        <ele>1213</ele>
        <time>2010-05-22T15:46:12Z</time>
      </trkpt>
      <trkpt lat="45.01744" lon="5.50933">
        <ele>1212</ele>
        <time>2010-05-22T15:46:18Z</time>
      </trkpt>
      <trkpt lat="45.01755" lon="5.50961">
        <ele>1212</ele>
        <time>2010-05-22T15:46:26Z</time>
      </trkpt>
      <trkpt lat="45.01765" lon="5.50997">
        <ele>1209</ele>
        <time>2010-05-22T15:46:31Z</time>
      </trkpt>
      <trkpt lat="45.01778" lon="5.5104">
        <ele>1205</ele>
        <time>2010-05-22T15:46:36Z</time>
      </trkpt>
      <trkpt lat="45.01816" lon="5.51094">
        <ele>1200</ele>
        <time>2010-05-22T15:46:42Z</time>
      </trkpt>
      <trkpt lat="45.01846" lon="5.51145">
        <ele>1195</ele>
        <time>2010-05-22T15:46:48Z</time>
      </trkpt>
      <trkpt lat="45.01861" lon="5.51211">
        <ele>1191</ele>
        <time>2010-05-22T15:46:53Z</time>
      </trkpt>
      <trkpt lat="45.01904" lon="5.51256">
        <ele>1186</ele>
        <time>2010-05-22T15:47:00Z</time>
      </trkpt>
      <trkpt lat="45.01942" lon="5.51296">
        <ele>1181</ele>
        <time>2010-05-22T15:47:05Z</time>
      </trkpt>
      <trkpt lat="45.01956" lon="5.51344">
        <ele>1177</ele>
        <time>2010-05-22T15:47:11Z</time>
      </trkpt>
      <trkpt lat="45.01965" lon="5.51397">
        <ele>1176</ele>
        <time>2010-05-22T15:47:16Z</time>
      </trkpt>
      <trkpt lat="45.01973" lon="5.51433">
        <ele>1176</ele>
        <time>2010-05-22T15:47:21Z</time>
      </trkpt>
      <trkpt lat="45.01986" lon="5.51466">
        <ele>1176</ele>
        <time>2010-05-22T15:47:27Z</time>
      </trkpt>
      <trkpt lat="45.0201" lon="5.51504">
        <ele>1176</ele>
        <time>2010-05-22T15:47:32Z</time>
      </trkpt>
      <trkpt lat="45.02033" lon="5.51534">
        <ele>1176</ele>
        <time>2010-05-22T15:47:38Z</time>
      </trkpt>
      <trkpt lat="45.02057" lon="5.5156">
        <ele>1176</ele>
        <time>2010-05-22T15:47:43Z</time>
      </trkpt>
      <trkpt lat="45.02084" lon="5.51585">
        <ele>1176</ele>
        <time>2010-05-22T15:47:48Z</time>
      </trkpt>
      <trkpt lat="45.02105" lon="5.51639">
        <ele>1172</ele>
        <time>2010-05-22T15:47:54Z</time>
      </trkpt>
      <trkpt lat="45.0214" lon="5.51666">
        <ele>1169</ele>
        <time>2010-05-22T15:47:59Z</time>
      </trkpt>
      <trkpt lat="45.02187" lon="5.51687">
        <ele>1165</ele>
        <time>2010-05-22T15:48:06Z</time>
      </trkpt>
      <trkpt lat="45.02231" lon="5.51712">
        <ele>1163</ele>
        <time>2010-05-22T15:48:11Z</time>
      </trkpt>
      <trkpt lat="45.02271" lon="5.51719">
        <ele>1161</ele>
        <time>2010-05-22T15:48:17Z</time>
      </trkpt>
      <trkpt lat="45.02313" lon="5.51738">
        <ele>1159</ele>
        <time>2010-05-22T15:48:23Z</time>
      </trkpt>
      <trkpt lat="45.0235" lon="5.51742">
        <ele>1156</ele>
        <time>2010-05-22T15:48:29Z</time>
      </trkpt>
      <trkpt lat="45.0236" lon="5.5174">
        <ele>1152</ele>
        <time>2010-05-22T15:48:35Z</time>
      </trkpt>
      <trkpt lat="45.02356" lon="5.51741">
        <ele>1149</ele>
        <time>2010-05-22T15:48:40Z</time>
      </trkpt>
      <trkpt lat="45.02355" lon="5.51741">
        <ele>1144</ele>
        <time>2010-05-22T15:48:48Z</time>
      </trkpt>
      <trkpt lat="45.02356" lon="5.51739">
        <ele>1144</ele>
        <time>2010-05-22T15:48:57Z</time>
      </trkpt>
      <trkpt lat="45.02357" lon="5.51738">
        <ele>1144</ele>
        <time>2010-05-22T15:49:08Z</time>
      </trkpt>
      <trkpt lat="45.02355" lon="5.51738">
        <ele>1144</ele>
        <time>2010-05-22T15:49:23Z</time>
      </trkpt>
      <trkpt lat="45.02353" lon="5.51738">
        <ele>1144</ele>
        <time>2010-05-22T15:49:39Z</time>
      </trkpt>
      <trkpt lat="45.02352" lon="5.51737">
        <ele>1144</ele>
        <time>2010-05-22T15:49:48Z</time>
      </trkpt>
      <trkpt lat="45.02353" lon="5.51736">
        <ele>1144</ele>
        <time>2010-05-22T15:50:10Z</time>
      </trkpt>
      <trkpt lat="45.02353" lon="5.51738">
        <ele>1145</ele>
        <time>2010-05-22T15:50:21Z</time>
      </trkpt>
      <trkpt lat="45.02354" lon="5.5174">
        <ele>1145</ele>
        <time>2010-05-22T15:50:27Z</time>
      </trkpt>
      <trkpt lat="45.02353" lon="5.51743">
        <ele>1145</ele>
        <time>2010-05-22T15:50:39Z</time>
      </trkpt>
      <trkpt lat="45.02353" lon="5.51745">
        <ele>1145</ele>
        <time>2010-05-22T15:50:45Z</time>
      </trkpt>
      <trkpt lat="45.02354" lon="5.51746">
        <ele>1145</ele>
        <time>2010-05-22T15:50:50Z</time>
      </trkpt>
      <trkpt lat="45.02355" lon="5.51746">
        <ele>1145</ele>
        <time>2010-05-22T15:50:52Z</time>
      </trkpt>
    </trkseg>
  </trk>
</gpx>